<?xml version="1.0" encoding="UTF-8" standalone="no" ?>
<gpx xmlns="http://www.topografix.com/GPX/1/1" xmlns:xsi="http://www.w3.org/2001/XMLSchema-instance" xsi:schemaLocation="http://www.topografix.com/GPX/1/1 http://www.topografix.com/GPX/1/1/gpx.xsd" version="1.1" creator="VisuGPX - https://www.visugpx.com">
  <metadata>
    <name>2018-09-20-46-Pomarede</name>
    <desc><![CDATA[Randonnée de 12km pour 250m de dénivelé positif De beaux chemins en sous bois]]></desc>
  </metadata>
  <trk>
    <name><![CDATA[2018-09-20 17:33:44]]></name>
    <trkseg>
      <trkpt lat="44.56538" lon="1.17043">
        <ele>189.52</ele>
        <time>2018-09-20T11:57:03Z</time>
      </trkpt>
      <trkpt lat="44.56531" lon="1.17025">
        <ele>190</ele>
        <time>2018-09-20T11:58:29Z</time>
      </trkpt>
      <trkpt lat="44.56533" lon="1.17034">
        <ele>190</ele>
        <time>2018-09-20T11:59:55Z</time>
      </trkpt>
      <trkpt lat="44.56536" lon="1.17043">
        <ele>190</ele>
        <time>2018-09-20T12:00:27Z</time>
      </trkpt>
      <trkpt lat="44.56534" lon="1.17037">
        <ele>190</ele>
        <time>2018-09-20T12:01:35Z</time>
      </trkpt>
      <trkpt lat="44.56542" lon="1.17038">
        <ele>190</ele>
        <time>2018-09-20T12:02:33Z</time>
      </trkpt>
      <trkpt lat="44.56533" lon="1.1704">
        <ele>190.48</ele>
        <time>2018-09-20T12:05:49Z</time>
      </trkpt>
      <trkpt lat="44.56539" lon="1.17053">
        <ele>190.48</ele>
        <time>2018-09-20T12:07:24Z</time>
      </trkpt>
      <trkpt lat="44.56542" lon="1.17064">
        <ele>190.48</ele>
        <time>2018-09-20T12:07:46Z</time>
      </trkpt>
      <trkpt lat="44.56545" lon="1.17079">
        <ele>190.48</ele>
        <time>2018-09-20T12:08:01Z</time>
      </trkpt>
      <trkpt lat="44.56551" lon="1.17091">
        <ele>190.48</ele>
        <time>2018-09-20T12:08:12Z</time>
      </trkpt>
      <trkpt lat="44.5656" lon="1.1709">
        <ele>190.48</ele>
        <time>2018-09-20T12:08:21Z</time>
      </trkpt>
      <trkpt lat="44.56568" lon="1.17095">
        <ele>187.59</ele>
        <time>2018-09-20T12:08:35Z</time>
      </trkpt>
      <trkpt lat="44.56572" lon="1.17109">
        <ele>186.63</ele>
        <time>2018-09-20T12:08:44Z</time>
      </trkpt>
      <trkpt lat="44.56575" lon="1.17122">
        <ele>186.15</ele>
        <time>2018-09-20T12:08:51Z</time>
      </trkpt>
      <trkpt lat="44.56579" lon="1.17136">
        <ele>185.19</ele>
        <time>2018-09-20T12:08:59Z</time>
      </trkpt>
      <trkpt lat="44.56583" lon="1.17149">
        <ele>185.19</ele>
        <time>2018-09-20T12:09:08Z</time>
      </trkpt>
      <trkpt lat="44.56587" lon="1.17161">
        <ele>185.19</ele>
        <time>2018-09-20T12:09:16Z</time>
      </trkpt>
      <trkpt lat="44.5659" lon="1.17174">
        <ele>185.19</ele>
        <time>2018-09-20T12:09:24Z</time>
      </trkpt>
      <trkpt lat="44.56598" lon="1.17186">
        <ele>184.71</ele>
        <time>2018-09-20T12:09:33Z</time>
      </trkpt>
      <trkpt lat="44.5661" lon="1.17192">
        <ele>186.15</ele>
        <time>2018-09-20T12:09:42Z</time>
      </trkpt>
      <trkpt lat="44.56619" lon="1.17197">
        <ele>186.15</ele>
        <time>2018-09-20T12:09:52Z</time>
      </trkpt>
      <trkpt lat="44.56629" lon="1.17215">
        <ele>186.63</ele>
        <time>2018-09-20T12:10:06Z</time>
      </trkpt>
      <trkpt lat="44.56638" lon="1.17228">
        <ele>188.08</ele>
        <time>2018-09-20T12:10:17Z</time>
      </trkpt>
      <trkpt lat="44.56644" lon="1.17243">
        <ele>189.52</ele>
        <time>2018-09-20T12:10:29Z</time>
      </trkpt>
      <trkpt lat="44.56664" lon="1.17289">
        <ele>192.88</ele>
        <time>2018-09-20T12:11:12Z</time>
      </trkpt>
      <trkpt lat="44.56676" lon="1.17296">
        <ele>193.36</ele>
        <time>2018-09-20T12:11:22Z</time>
      </trkpt>
      <trkpt lat="44.56697" lon="1.17304">
        <ele>194.32</ele>
        <time>2018-09-20T12:11:37Z</time>
      </trkpt>
      <trkpt lat="44.56712" lon="1.17314">
        <ele>195.77</ele>
        <time>2018-09-20T12:11:49Z</time>
      </trkpt>
      <trkpt lat="44.56721" lon="1.17352">
        <ele>200.09</ele>
        <time>2018-09-20T12:12:19Z</time>
      </trkpt>
      <trkpt lat="44.56718" lon="1.17373">
        <ele>201.05</ele>
        <time>2018-09-20T12:12:34Z</time>
      </trkpt>
      <trkpt lat="44.56716" lon="1.1739">
        <ele>201.05</ele>
        <time>2018-09-20T12:12:46Z</time>
      </trkpt>
      <trkpt lat="44.5671" lon="1.17405">
        <ele>201.05</ele>
        <time>2018-09-20T12:12:55Z</time>
      </trkpt>
      <trkpt lat="44.56706" lon="1.17421">
        <ele>201.53</ele>
        <time>2018-09-20T12:13:05Z</time>
      </trkpt>
      <trkpt lat="44.56698" lon="1.1744">
        <ele>202.98</ele>
        <time>2018-09-20T12:13:19Z</time>
      </trkpt>
      <trkpt lat="44.56688" lon="1.1747">
        <ele>204.9</ele>
        <time>2018-09-20T12:13:39Z</time>
      </trkpt>
      <trkpt lat="44.56681" lon="1.1749">
        <ele>205.86</ele>
        <time>2018-09-20T12:13:52Z</time>
      </trkpt>
      <trkpt lat="44.56673" lon="1.17509">
        <ele>205.38</ele>
        <time>2018-09-20T12:14:05Z</time>
      </trkpt>
      <trkpt lat="44.56667" lon="1.1753">
        <ele>205.38</ele>
        <time>2018-09-20T12:14:19Z</time>
      </trkpt>
      <trkpt lat="44.56661" lon="1.17582">
        <ele>202.98</ele>
        <time>2018-09-20T12:15:29Z</time>
      </trkpt>
      <trkpt lat="44.56667" lon="1.17639">
        <ele>205.86</ele>
        <time>2018-09-20T12:16:06Z</time>
      </trkpt>
      <trkpt lat="44.56668" lon="1.17659">
        <ele>205.86</ele>
        <time>2018-09-20T12:16:18Z</time>
      </trkpt>
      <trkpt lat="44.56665" lon="1.1768">
        <ele>207.3</ele>
        <time>2018-09-20T12:16:29Z</time>
      </trkpt>
      <trkpt lat="44.56661" lon="1.17696">
        <ele>207.78</ele>
        <time>2018-09-20T12:16:40Z</time>
      </trkpt>
      <trkpt lat="44.56654" lon="1.17715">
        <ele>207.78</ele>
        <time>2018-09-20T12:16:54Z</time>
      </trkpt>
      <trkpt lat="44.56649" lon="1.17738">
        <ele>208.74</ele>
        <time>2018-09-20T12:17:04Z</time>
      </trkpt>
      <trkpt lat="44.5664" lon="1.1775">
        <ele>209.22</ele>
        <time>2018-09-20T12:17:13Z</time>
      </trkpt>
      <trkpt lat="44.56621" lon="1.17774">
        <ele>211.63</ele>
        <time>2018-09-20T12:18:16Z</time>
      </trkpt>
      <trkpt lat="44.56613" lon="1.17793">
        <ele>213.07</ele>
        <time>2018-09-20T12:18:34Z</time>
      </trkpt>
      <trkpt lat="44.56604" lon="1.17805">
        <ele>214.99</ele>
        <time>2018-09-20T12:18:46Z</time>
      </trkpt>
      <trkpt lat="44.56594" lon="1.17823">
        <ele>215.47</ele>
        <time>2018-09-20T12:19:03Z</time>
      </trkpt>
      <trkpt lat="44.56584" lon="1.17848">
        <ele>216.43</ele>
        <time>2018-09-20T12:19:23Z</time>
      </trkpt>
      <trkpt lat="44.56574" lon="1.17868">
        <ele>217.88</ele>
        <time>2018-09-20T12:19:40Z</time>
      </trkpt>
      <trkpt lat="44.56562" lon="1.17881">
        <ele>218.84</ele>
        <time>2018-09-20T12:19:54Z</time>
      </trkpt>
      <trkpt lat="44.56549" lon="1.17891">
        <ele>219.32</ele>
        <time>2018-09-20T12:20:07Z</time>
      </trkpt>
      <trkpt lat="44.56537" lon="1.179">
        <ele>219.8</ele>
        <time>2018-09-20T12:20:19Z</time>
      </trkpt>
      <trkpt lat="44.56527" lon="1.17912">
        <ele>219.8</ele>
        <time>2018-09-20T12:20:28Z</time>
      </trkpt>
      <trkpt lat="44.5652" lon="1.17924">
        <ele>219.8</ele>
        <time>2018-09-20T12:20:36Z</time>
      </trkpt>
      <trkpt lat="44.56514" lon="1.17937">
        <ele>220.28</ele>
        <time>2018-09-20T12:20:43Z</time>
      </trkpt>
      <trkpt lat="44.56509" lon="1.17951">
        <ele>220.28</ele>
        <time>2018-09-20T12:20:50Z</time>
      </trkpt>
      <trkpt lat="44.56502" lon="1.17964">
        <ele>220.76</ele>
        <time>2018-09-20T12:20:58Z</time>
      </trkpt>
      <trkpt lat="44.56497" lon="1.1798">
        <ele>221.24</ele>
        <time>2018-09-20T12:21:07Z</time>
      </trkpt>
      <trkpt lat="44.56492" lon="1.17995">
        <ele>221.72</ele>
        <time>2018-09-20T12:21:15Z</time>
      </trkpt>
      <trkpt lat="44.56487" lon="1.18011">
        <ele>222.2</ele>
        <time>2018-09-20T12:21:23Z</time>
      </trkpt>
      <trkpt lat="44.56481" lon="1.18024">
        <ele>222.2</ele>
        <time>2018-09-20T12:21:31Z</time>
      </trkpt>
      <trkpt lat="44.56479" lon="1.18037">
        <ele>222.2</ele>
        <time>2018-09-20T12:21:42Z</time>
      </trkpt>
      <trkpt lat="44.56476" lon="1.18049">
        <ele>221.24</ele>
        <time>2018-09-20T12:21:50Z</time>
      </trkpt>
      <trkpt lat="44.56473" lon="1.18062">
        <ele>220.76</ele>
        <time>2018-09-20T12:21:57Z</time>
      </trkpt>
      <trkpt lat="44.56468" lon="1.18075">
        <ele>221.72</ele>
        <time>2018-09-20T12:22:06Z</time>
      </trkpt>
      <trkpt lat="44.56462" lon="1.18089">
        <ele>221.72</ele>
        <time>2018-09-20T12:22:14Z</time>
      </trkpt>
      <trkpt lat="44.56461" lon="1.18105">
        <ele>221.72</ele>
        <time>2018-09-20T12:22:23Z</time>
      </trkpt>
      <trkpt lat="44.56463" lon="1.18122">
        <ele>221.72</ele>
        <time>2018-09-20T12:22:37Z</time>
      </trkpt>
      <trkpt lat="44.56465" lon="1.18135">
        <ele>221.72</ele>
        <time>2018-09-20T12:22:46Z</time>
      </trkpt>
      <trkpt lat="44.56462" lon="1.18147">
        <ele>221.72</ele>
        <time>2018-09-20T12:22:56Z</time>
      </trkpt>
      <trkpt lat="44.56457" lon="1.18161">
        <ele>221.72</ele>
        <time>2018-09-20T12:23:09Z</time>
      </trkpt>
      <trkpt lat="44.56448" lon="1.18185">
        <ele>221.72</ele>
        <time>2018-09-20T12:23:23Z</time>
      </trkpt>
      <trkpt lat="44.56441" lon="1.18203">
        <ele>221.72</ele>
        <time>2018-09-20T12:23:36Z</time>
      </trkpt>
      <trkpt lat="44.56434" lon="1.18219">
        <ele>221.72</ele>
        <time>2018-09-20T12:23:46Z</time>
      </trkpt>
      <trkpt lat="44.56428" lon="1.18242">
        <ele>221.72</ele>
        <time>2018-09-20T12:23:59Z</time>
      </trkpt>
      <trkpt lat="44.56416" lon="1.18276">
        <ele>221.72</ele>
        <time>2018-09-20T12:24:23Z</time>
      </trkpt>
      <trkpt lat="44.56403" lon="1.18313">
        <ele>223.16</ele>
        <time>2018-09-20T12:24:42Z</time>
      </trkpt>
      <trkpt lat="44.56397" lon="1.18328">
        <ele>223.64</ele>
        <time>2018-09-20T12:24:54Z</time>
      </trkpt>
      <trkpt lat="44.5639" lon="1.18349">
        <ele>224.61</ele>
        <time>2018-09-20T12:25:08Z</time>
      </trkpt>
      <trkpt lat="44.56384" lon="1.18364">
        <ele>225.09</ele>
        <time>2018-09-20T12:25:18Z</time>
      </trkpt>
      <trkpt lat="44.56377" lon="1.18378">
        <ele>225.57</ele>
        <time>2018-09-20T12:25:28Z</time>
      </trkpt>
      <trkpt lat="44.5637" lon="1.18398">
        <ele>226.05</ele>
        <time>2018-09-20T12:25:38Z</time>
      </trkpt>
      <trkpt lat="44.56364" lon="1.18413">
        <ele>227.01</ele>
        <time>2018-09-20T12:25:49Z</time>
      </trkpt>
      <trkpt lat="44.56357" lon="1.18435">
        <ele>228.93</ele>
        <time>2018-09-20T12:26:03Z</time>
      </trkpt>
      <trkpt lat="44.56354" lon="1.18453">
        <ele>229.41</ele>
        <time>2018-09-20T12:26:13Z</time>
      </trkpt>
      <trkpt lat="44.56351" lon="1.18475">
        <ele>230.85</ele>
        <time>2018-09-20T12:26:28Z</time>
      </trkpt>
      <trkpt lat="44.56347" lon="1.18504">
        <ele>232.78</ele>
        <time>2018-09-20T12:26:43Z</time>
      </trkpt>
      <trkpt lat="44.56342" lon="1.18528">
        <ele>234.7</ele>
        <time>2018-09-20T12:27:01Z</time>
      </trkpt>
      <trkpt lat="44.56341" lon="1.18545">
        <ele>236.14</ele>
        <time>2018-09-20T12:27:12Z</time>
      </trkpt>
      <trkpt lat="44.56341" lon="1.1857">
        <ele>237.1</ele>
        <time>2018-09-20T12:27:26Z</time>
      </trkpt>
      <trkpt lat="44.56341" lon="1.18591">
        <ele>238.06</ele>
        <time>2018-09-20T12:27:37Z</time>
      </trkpt>
      <trkpt lat="44.56342" lon="1.18607">
        <ele>239.02</ele>
        <time>2018-09-20T12:27:48Z</time>
      </trkpt>
      <trkpt lat="44.56341" lon="1.1863">
        <ele>239.99</ele>
        <time>2018-09-20T12:28:02Z</time>
      </trkpt>
      <trkpt lat="44.5634" lon="1.18646">
        <ele>239.99</ele>
        <time>2018-09-20T12:28:13Z</time>
      </trkpt>
      <trkpt lat="44.56335" lon="1.1866">
        <ele>240.47</ele>
        <time>2018-09-20T12:28:23Z</time>
      </trkpt>
      <trkpt lat="44.56335" lon="1.18668">
        <ele>240.95</ele>
        <time>2018-09-20T12:29:20Z</time>
      </trkpt>
      <trkpt lat="44.56326" lon="1.18659">
        <ele>241.43</ele>
        <time>2018-09-20T12:29:29Z</time>
      </trkpt>
      <trkpt lat="44.56331" lon="1.1866">
        <ele>241.91</ele>
        <time>2018-09-20T12:30:39Z</time>
      </trkpt>
      <trkpt lat="44.56336" lon="1.1868">
        <ele>240.47</ele>
        <time>2018-09-20T12:31:46Z</time>
      </trkpt>
      <trkpt lat="44.56332" lon="1.18691">
        <ele>240.95</ele>
        <time>2018-09-20T12:33:03Z</time>
      </trkpt>
      <trkpt lat="44.56331" lon="1.18706">
        <ele>240.47</ele>
        <time>2018-09-20T12:33:12Z</time>
      </trkpt>
      <trkpt lat="44.56328" lon="1.18718">
        <ele>239.99</ele>
        <time>2018-09-20T12:33:20Z</time>
      </trkpt>
      <trkpt lat="44.56327" lon="1.18731">
        <ele>239.02</ele>
        <time>2018-09-20T12:33:27Z</time>
      </trkpt>
      <trkpt lat="44.56324" lon="1.18745">
        <ele>238.06</ele>
        <time>2018-09-20T12:33:35Z</time>
      </trkpt>
      <trkpt lat="44.56322" lon="1.18759">
        <ele>236.62</ele>
        <time>2018-09-20T12:33:43Z</time>
      </trkpt>
      <trkpt lat="44.56319" lon="1.18773">
        <ele>236.14</ele>
        <time>2018-09-20T12:33:51Z</time>
      </trkpt>
      <trkpt lat="44.56316" lon="1.18787">
        <ele>234.7</ele>
        <time>2018-09-20T12:33:59Z</time>
      </trkpt>
      <trkpt lat="44.56312" lon="1.18801">
        <ele>234.22</ele>
        <time>2018-09-20T12:34:08Z</time>
      </trkpt>
      <trkpt lat="44.56307" lon="1.18816">
        <ele>233.26</ele>
        <time>2018-09-20T12:34:18Z</time>
      </trkpt>
      <trkpt lat="44.56302" lon="1.18831">
        <ele>232.3</ele>
        <time>2018-09-20T12:34:28Z</time>
      </trkpt>
      <trkpt lat="44.56296" lon="1.18845">
        <ele>232.3</ele>
        <time>2018-09-20T12:34:37Z</time>
      </trkpt>
      <trkpt lat="44.56288" lon="1.18862">
        <ele>231.81</ele>
        <time>2018-09-20T12:34:47Z</time>
      </trkpt>
      <trkpt lat="44.56282" lon="1.18877">
        <ele>231.81</ele>
        <time>2018-09-20T12:34:56Z</time>
      </trkpt>
      <trkpt lat="44.56275" lon="1.18895">
        <ele>231.81</ele>
        <time>2018-09-20T12:35:06Z</time>
      </trkpt>
      <trkpt lat="44.56269" lon="1.1891">
        <ele>233.74</ele>
        <time>2018-09-20T12:35:15Z</time>
      </trkpt>
      <trkpt lat="44.56263" lon="1.18924">
        <ele>233.74</ele>
        <time>2018-09-20T12:35:24Z</time>
      </trkpt>
      <trkpt lat="44.56258" lon="1.18937">
        <ele>235.18</ele>
        <time>2018-09-20T12:35:32Z</time>
      </trkpt>
      <trkpt lat="44.56252" lon="1.18951">
        <ele>235.66</ele>
        <time>2018-09-20T12:35:40Z</time>
      </trkpt>
      <trkpt lat="44.56248" lon="1.18962">
        <ele>236.62</ele>
        <time>2018-09-20T12:35:47Z</time>
      </trkpt>
      <trkpt lat="44.56243" lon="1.18973">
        <ele>237.1</ele>
        <time>2018-09-20T12:35:54Z</time>
      </trkpt>
      <trkpt lat="44.56237" lon="1.18985">
        <ele>238.06</ele>
        <time>2018-09-20T12:36:01Z</time>
      </trkpt>
      <trkpt lat="44.56234" lon="1.18999">
        <ele>238.06</ele>
        <time>2018-09-20T12:36:09Z</time>
      </trkpt>
      <trkpt lat="44.5624" lon="1.1901">
        <ele>235.18</ele>
        <time>2018-09-20T12:36:18Z</time>
      </trkpt>
      <trkpt lat="44.56245" lon="1.1902">
        <ele>232.78</ele>
        <time>2018-09-20T12:36:31Z</time>
      </trkpt>
      <trkpt lat="44.56251" lon="1.19029">
        <ele>231.81</ele>
        <time>2018-09-20T12:36:39Z</time>
      </trkpt>
      <trkpt lat="44.56256" lon="1.19041">
        <ele>229.41</ele>
        <time>2018-09-20T12:36:48Z</time>
      </trkpt>
      <trkpt lat="44.56263" lon="1.19052">
        <ele>228.45</ele>
        <time>2018-09-20T12:36:57Z</time>
      </trkpt>
      <trkpt lat="44.56268" lon="1.19063">
        <ele>227.49</ele>
        <time>2018-09-20T12:37:05Z</time>
      </trkpt>
      <trkpt lat="44.56274" lon="1.19074">
        <ele>226.05</ele>
        <time>2018-09-20T12:37:13Z</time>
      </trkpt>
      <trkpt lat="44.56278" lon="1.19087">
        <ele>225.09</ele>
        <time>2018-09-20T12:37:22Z</time>
      </trkpt>
      <trkpt lat="44.56278" lon="1.19102">
        <ele>224.12</ele>
        <time>2018-09-20T12:37:32Z</time>
      </trkpt>
      <trkpt lat="44.56275" lon="1.19114">
        <ele>223.64</ele>
        <time>2018-09-20T12:37:40Z</time>
      </trkpt>
      <trkpt lat="44.56271" lon="1.19126">
        <ele>222.68</ele>
        <time>2018-09-20T12:37:48Z</time>
      </trkpt>
      <trkpt lat="44.56267" lon="1.19139">
        <ele>222.2</ele>
        <time>2018-09-20T12:37:56Z</time>
      </trkpt>
      <trkpt lat="44.56265" lon="1.19154">
        <ele>221.24</ele>
        <time>2018-09-20T12:38:05Z</time>
      </trkpt>
      <trkpt lat="44.56264" lon="1.19167">
        <ele>219.8</ele>
        <time>2018-09-20T12:38:14Z</time>
      </trkpt>
      <trkpt lat="44.56269" lon="1.19182">
        <ele>219.32</ele>
        <time>2018-09-20T12:38:22Z</time>
      </trkpt>
      <trkpt lat="44.56276" lon="1.19194">
        <ele>219.32</ele>
        <time>2018-09-20T12:38:30Z</time>
      </trkpt>
      <trkpt lat="44.56282" lon="1.19206">
        <ele>218.84</ele>
        <time>2018-09-20T12:38:38Z</time>
      </trkpt>
      <trkpt lat="44.56287" lon="1.19219">
        <ele>218.84</ele>
        <time>2018-09-20T12:38:47Z</time>
      </trkpt>
      <trkpt lat="44.56292" lon="1.19233">
        <ele>218.84</ele>
        <time>2018-09-20T12:38:56Z</time>
      </trkpt>
      <trkpt lat="44.56291" lon="1.19246">
        <ele>218.84</ele>
        <time>2018-09-20T12:39:05Z</time>
      </trkpt>
      <trkpt lat="44.56281" lon="1.19245">
        <ele>218.84</ele>
        <time>2018-09-20T12:39:15Z</time>
      </trkpt>
      <trkpt lat="44.5627" lon="1.19243">
        <ele>217.4</ele>
        <time>2018-09-20T12:39:23Z</time>
      </trkpt>
      <trkpt lat="44.56259" lon="1.19243">
        <ele>217.4</ele>
        <time>2018-09-20T12:39:31Z</time>
      </trkpt>
      <trkpt lat="44.5625" lon="1.19241">
        <ele>217.4</ele>
        <time>2018-09-20T12:39:39Z</time>
      </trkpt>
      <trkpt lat="44.56239" lon="1.19238">
        <ele>216.91</ele>
        <time>2018-09-20T12:39:48Z</time>
      </trkpt>
      <trkpt lat="44.56229" lon="1.19242">
        <ele>216.43</ele>
        <time>2018-09-20T12:39:57Z</time>
      </trkpt>
      <trkpt lat="44.56218" lon="1.19245">
        <ele>215.95</ele>
        <time>2018-09-20T12:40:05Z</time>
      </trkpt>
      <trkpt lat="44.56207" lon="1.19249">
        <ele>214.99</ele>
        <time>2018-09-20T12:40:14Z</time>
      </trkpt>
      <trkpt lat="44.56196" lon="1.19253">
        <ele>214.51</ele>
        <time>2018-09-20T12:40:25Z</time>
      </trkpt>
      <trkpt lat="44.56182" lon="1.19255">
        <ele>214.03</ele>
        <time>2018-09-20T12:40:36Z</time>
      </trkpt>
      <trkpt lat="44.56169" lon="1.19264">
        <ele>213.55</ele>
        <time>2018-09-20T12:40:47Z</time>
      </trkpt>
      <trkpt lat="44.56159" lon="1.19275">
        <ele>213.07</ele>
        <time>2018-09-20T12:40:57Z</time>
      </trkpt>
      <trkpt lat="44.56147" lon="1.19287">
        <ele>212.59</ele>
        <time>2018-09-20T12:41:07Z</time>
      </trkpt>
      <trkpt lat="44.56137" lon="1.19301">
        <ele>212.11</ele>
        <time>2018-09-20T12:41:16Z</time>
      </trkpt>
      <trkpt lat="44.56127" lon="1.19313">
        <ele>211.63</ele>
        <time>2018-09-20T12:41:25Z</time>
      </trkpt>
      <trkpt lat="44.56117" lon="1.19324">
        <ele>210.67</ele>
        <time>2018-09-20T12:41:35Z</time>
      </trkpt>
      <trkpt lat="44.56108" lon="1.19333">
        <ele>209.7</ele>
        <time>2018-09-20T12:41:45Z</time>
      </trkpt>
      <trkpt lat="44.56095" lon="1.19343">
        <ele>209.22</ele>
        <time>2018-09-20T12:41:55Z</time>
      </trkpt>
      <trkpt lat="44.56084" lon="1.19353">
        <ele>208.74</ele>
        <time>2018-09-20T12:42:05Z</time>
      </trkpt>
      <trkpt lat="44.56073" lon="1.19361">
        <ele>208.26</ele>
        <time>2018-09-20T12:42:15Z</time>
      </trkpt>
      <trkpt lat="44.56062" lon="1.19367">
        <ele>207.78</ele>
        <time>2018-09-20T12:42:24Z</time>
      </trkpt>
      <trkpt lat="44.56049" lon="1.19374">
        <ele>206.34</ele>
        <time>2018-09-20T12:42:35Z</time>
      </trkpt>
      <trkpt lat="44.56037" lon="1.19377">
        <ele>205.38</ele>
        <time>2018-09-20T12:42:46Z</time>
      </trkpt>
      <trkpt lat="44.56023" lon="1.19379">
        <ele>204.9</ele>
        <time>2018-09-20T12:42:57Z</time>
      </trkpt>
      <trkpt lat="44.5601" lon="1.19385">
        <ele>204.42</ele>
        <time>2018-09-20T12:43:07Z</time>
      </trkpt>
      <trkpt lat="44.56001" lon="1.19393">
        <ele>203.46</ele>
        <time>2018-09-20T12:43:18Z</time>
      </trkpt>
      <trkpt lat="44.5599" lon="1.19411">
        <ele>202.49</ele>
        <time>2018-09-20T12:43:29Z</time>
      </trkpt>
      <trkpt lat="44.55981" lon="1.19429">
        <ele>201.53</ele>
        <time>2018-09-20T12:43:40Z</time>
      </trkpt>
      <trkpt lat="44.55972" lon="1.19446">
        <ele>200.09</ele>
        <time>2018-09-20T12:43:52Z</time>
      </trkpt>
      <trkpt lat="44.55967" lon="1.19463">
        <ele>199.61</ele>
        <time>2018-09-20T12:44:01Z</time>
      </trkpt>
      <trkpt lat="44.55962" lon="1.19481">
        <ele>198.17</ele>
        <time>2018-09-20T12:44:12Z</time>
      </trkpt>
      <trkpt lat="44.55957" lon="1.19503">
        <ele>197.21</ele>
        <time>2018-09-20T12:44:25Z</time>
      </trkpt>
      <trkpt lat="44.55951" lon="1.19526">
        <ele>195.77</ele>
        <time>2018-09-20T12:44:37Z</time>
      </trkpt>
      <trkpt lat="44.55945" lon="1.19541">
        <ele>194.8</ele>
        <time>2018-09-20T12:44:47Z</time>
      </trkpt>
      <trkpt lat="44.55934" lon="1.1957">
        <ele>192.88</ele>
        <time>2018-09-20T12:45:05Z</time>
      </trkpt>
      <trkpt lat="44.55927" lon="1.1959">
        <ele>190.96</ele>
        <time>2018-09-20T12:45:16Z</time>
      </trkpt>
      <trkpt lat="44.55919" lon="1.19609">
        <ele>189.52</ele>
        <time>2018-09-20T12:45:28Z</time>
      </trkpt>
      <trkpt lat="44.55915" lon="1.19634">
        <ele>188.08</ele>
        <time>2018-09-20T12:45:43Z</time>
      </trkpt>
      <trkpt lat="44.55914" lon="1.19658">
        <ele>187.11</ele>
        <time>2018-09-20T12:45:58Z</time>
      </trkpt>
      <trkpt lat="44.55912" lon="1.1968">
        <ele>186.63</ele>
        <time>2018-09-20T12:46:10Z</time>
      </trkpt>
      <trkpt lat="44.55907" lon="1.19703">
        <ele>186.15</ele>
        <time>2018-09-20T12:46:23Z</time>
      </trkpt>
      <trkpt lat="44.55901" lon="1.19718">
        <ele>186.15</ele>
        <time>2018-09-20T12:46:32Z</time>
      </trkpt>
      <trkpt lat="44.55886" lon="1.19745">
        <ele>184.23</ele>
        <time>2018-09-20T12:46:52Z</time>
      </trkpt>
      <trkpt lat="44.55874" lon="1.19762">
        <ele>183.75</ele>
        <time>2018-09-20T12:47:04Z</time>
      </trkpt>
      <trkpt lat="44.55859" lon="1.19793">
        <ele>182.79</ele>
        <time>2018-09-20T12:47:27Z</time>
      </trkpt>
      <trkpt lat="44.55849" lon="1.19823">
        <ele>183.27</ele>
        <time>2018-09-20T12:52:07Z</time>
      </trkpt>
      <trkpt lat="44.55844" lon="1.1984">
        <ele>182.79</ele>
        <time>2018-09-20T12:52:18Z</time>
      </trkpt>
      <trkpt lat="44.5584" lon="1.19856">
        <ele>181.83</ele>
        <time>2018-09-20T12:52:28Z</time>
      </trkpt>
      <trkpt lat="44.55833" lon="1.1987">
        <ele>180.38</ele>
        <time>2018-09-20T12:52:37Z</time>
      </trkpt>
      <trkpt lat="44.55826" lon="1.19886">
        <ele>178.94</ele>
        <time>2018-09-20T12:52:49Z</time>
      </trkpt>
      <trkpt lat="44.55823" lon="1.19904">
        <ele>177.02</ele>
        <time>2018-09-20T12:53:01Z</time>
      </trkpt>
      <trkpt lat="44.55814" lon="1.19928">
        <ele>174.62</ele>
        <time>2018-09-20T12:53:20Z</time>
      </trkpt>
      <trkpt lat="44.55809" lon="1.19944">
        <ele>172.69</ele>
        <time>2018-09-20T12:53:30Z</time>
      </trkpt>
      <trkpt lat="44.55802" lon="1.19957">
        <ele>171.25</ele>
        <time>2018-09-20T12:53:39Z</time>
      </trkpt>
      <trkpt lat="44.55792" lon="1.19974">
        <ele>168.37</ele>
        <time>2018-09-20T12:53:53Z</time>
      </trkpt>
      <trkpt lat="44.55784" lon="1.1999">
        <ele>166.93</ele>
        <time>2018-09-20T12:54:05Z</time>
      </trkpt>
      <trkpt lat="44.5578" lon="1.20005">
        <ele>165.48</ele>
        <time>2018-09-20T12:54:14Z</time>
      </trkpt>
      <trkpt lat="44.55775" lon="1.2002">
        <ele>165</ele>
        <time>2018-09-20T12:54:24Z</time>
      </trkpt>
      <trkpt lat="44.55769" lon="1.20036">
        <ele>164.04</ele>
        <time>2018-09-20T12:54:34Z</time>
      </trkpt>
      <trkpt lat="44.55763" lon="1.2005">
        <ele>163.56</ele>
        <time>2018-09-20T12:54:44Z</time>
      </trkpt>
      <trkpt lat="44.55754" lon="1.20065">
        <ele>163.08</ele>
        <time>2018-09-20T12:54:55Z</time>
      </trkpt>
      <trkpt lat="44.55746" lon="1.20081">
        <ele>162.12</ele>
        <time>2018-09-20T12:55:06Z</time>
      </trkpt>
      <trkpt lat="44.55738" lon="1.20097">
        <ele>161.16</ele>
        <time>2018-09-20T12:55:20Z</time>
      </trkpt>
      <trkpt lat="44.55728" lon="1.20105">
        <ele>160.68</ele>
        <time>2018-09-20T12:55:31Z</time>
      </trkpt>
      <trkpt lat="44.5571" lon="1.20121">
        <ele>159.24</ele>
        <time>2018-09-20T12:55:50Z</time>
      </trkpt>
      <trkpt lat="44.557" lon="1.20131">
        <ele>158.27</ele>
        <time>2018-09-20T12:56:01Z</time>
      </trkpt>
      <trkpt lat="44.5569" lon="1.2014">
        <ele>158.27</ele>
        <time>2018-09-20T12:56:11Z</time>
      </trkpt>
      <trkpt lat="44.55681" lon="1.20147">
        <ele>158.27</ele>
        <time>2018-09-20T12:56:20Z</time>
      </trkpt>
      <trkpt lat="44.55664" lon="1.2015">
        <ele>160.2</ele>
        <time>2018-09-20T12:56:37Z</time>
      </trkpt>
      <trkpt lat="44.55641" lon="1.20142">
        <ele>163.08</ele>
        <time>2018-09-20T12:56:58Z</time>
      </trkpt>
      <trkpt lat="44.5563" lon="1.20133">
        <ele>165</ele>
        <time>2018-09-20T12:57:08Z</time>
      </trkpt>
      <trkpt lat="44.55618" lon="1.20129">
        <ele>165.96</ele>
        <time>2018-09-20T12:57:19Z</time>
      </trkpt>
      <trkpt lat="44.55607" lon="1.20127">
        <ele>166.93</ele>
        <time>2018-09-20T12:57:30Z</time>
      </trkpt>
      <trkpt lat="44.55596" lon="1.20124">
        <ele>167.89</ele>
        <time>2018-09-20T12:57:40Z</time>
      </trkpt>
      <trkpt lat="44.55586" lon="1.20122">
        <ele>167.89</ele>
        <time>2018-09-20T12:57:50Z</time>
      </trkpt>
      <trkpt lat="44.55574" lon="1.20123">
        <ele>168.85</ele>
        <time>2018-09-20T12:58:00Z</time>
      </trkpt>
      <trkpt lat="44.55562" lon="1.20123">
        <ele>169.33</ele>
        <time>2018-09-20T12:58:10Z</time>
      </trkpt>
      <trkpt lat="44.55549" lon="1.20123">
        <ele>169.33</ele>
        <time>2018-09-20T12:58:19Z</time>
      </trkpt>
      <trkpt lat="44.55534" lon="1.20125">
        <ele>170.29</ele>
        <time>2018-09-20T12:58:31Z</time>
      </trkpt>
      <trkpt lat="44.55523" lon="1.20127">
        <ele>170.77</ele>
        <time>2018-09-20T12:58:41Z</time>
      </trkpt>
      <trkpt lat="44.55509" lon="1.20134">
        <ele>172.21</ele>
        <time>2018-09-20T12:58:55Z</time>
      </trkpt>
      <trkpt lat="44.55494" lon="1.20138">
        <ele>172.69</ele>
        <time>2018-09-20T12:59:07Z</time>
      </trkpt>
      <trkpt lat="44.55471" lon="1.20148">
        <ele>175.1</ele>
        <time>2018-09-20T12:59:30Z</time>
      </trkpt>
      <trkpt lat="44.55457" lon="1.20154">
        <ele>176.54</ele>
        <time>2018-09-20T12:59:42Z</time>
      </trkpt>
      <trkpt lat="44.55321" lon="1.20182">
        <ele>198.65</ele>
        <time>2018-09-20T13:01:59Z</time>
      </trkpt>
      <trkpt lat="44.55288" lon="1.20194">
        <ele>202.98</ele>
        <time>2018-09-20T13:02:30Z</time>
      </trkpt>
      <trkpt lat="44.55271" lon="1.20208">
        <ele>205.38</ele>
        <time>2018-09-20T13:02:48Z</time>
      </trkpt>
      <trkpt lat="44.55255" lon="1.20241">
        <ele>210.67</ele>
        <time>2018-09-20T13:03:19Z</time>
      </trkpt>
      <trkpt lat="44.55247" lon="1.20256">
        <ele>212.59</ele>
        <time>2018-09-20T13:03:35Z</time>
      </trkpt>
      <trkpt lat="44.55256" lon="1.20267">
        <ele>214.99</ele>
        <time>2018-09-20T13:09:29Z</time>
      </trkpt>
      <trkpt lat="44.55244" lon="1.2027">
        <ele>215.95</ele>
        <time>2018-09-20T13:10:39Z</time>
      </trkpt>
      <trkpt lat="44.55233" lon="1.20266">
        <ele>217.4</ele>
        <time>2018-09-20T13:10:48Z</time>
      </trkpt>
      <trkpt lat="44.55222" lon="1.20262">
        <ele>218.36</ele>
        <time>2018-09-20T13:10:59Z</time>
      </trkpt>
      <trkpt lat="44.55186" lon="1.20261">
        <ele>225.57</ele>
        <time>2018-09-20T13:11:37Z</time>
      </trkpt>
      <trkpt lat="44.55167" lon="1.20263">
        <ele>227.97</ele>
        <time>2018-09-20T13:11:54Z</time>
      </trkpt>
      <trkpt lat="44.55153" lon="1.20265">
        <ele>228.93</ele>
        <time>2018-09-20T13:12:05Z</time>
      </trkpt>
      <trkpt lat="44.55145" lon="1.20279">
        <ele>229.89</ele>
        <time>2018-09-20T13:12:15Z</time>
      </trkpt>
      <trkpt lat="44.55143" lon="1.20296">
        <ele>229.41</ele>
        <time>2018-09-20T13:12:27Z</time>
      </trkpt>
      <trkpt lat="44.5514" lon="1.20319">
        <ele>227.49</ele>
        <time>2018-09-20T13:12:43Z</time>
      </trkpt>
      <trkpt lat="44.55137" lon="1.20344">
        <ele>226.53</ele>
        <time>2018-09-20T13:13:00Z</time>
      </trkpt>
      <trkpt lat="44.55129" lon="1.20357">
        <ele>225.57</ele>
        <time>2018-09-20T13:13:09Z</time>
      </trkpt>
      <trkpt lat="44.55121" lon="1.20327">
        <ele>228.45</ele>
        <time>2018-09-20T13:13:41Z</time>
      </trkpt>
      <trkpt lat="44.55117" lon="1.20307">
        <ele>230.85</ele>
        <time>2018-09-20T13:13:54Z</time>
      </trkpt>
      <trkpt lat="44.55115" lon="1.20276">
        <ele>233.26</ele>
        <time>2018-09-20T13:14:16Z</time>
      </trkpt>
      <trkpt lat="44.55106" lon="1.20238">
        <ele>235.66</ele>
        <time>2018-09-20T13:14:37Z</time>
      </trkpt>
      <trkpt lat="44.55099" lon="1.20217">
        <ele>238.06</ele>
        <time>2018-09-20T13:14:54Z</time>
      </trkpt>
      <trkpt lat="44.55076" lon="1.20162">
        <ele>242.39</ele>
        <time>2018-09-20T13:15:38Z</time>
      </trkpt>
      <trkpt lat="44.5507" lon="1.20136">
        <ele>243.35</ele>
        <time>2018-09-20T13:15:52Z</time>
      </trkpt>
      <trkpt lat="44.55053" lon="1.20086">
        <ele>243.83</ele>
        <time>2018-09-20T13:16:26Z</time>
      </trkpt>
      <trkpt lat="44.55039" lon="1.20054">
        <ele>243.83</ele>
        <time>2018-09-20T13:16:48Z</time>
      </trkpt>
      <trkpt lat="44.55027" lon="1.20023">
        <ele>243.83</ele>
        <time>2018-09-20T13:17:07Z</time>
      </trkpt>
      <trkpt lat="44.55005" lon="1.19984">
        <ele>244.79</ele>
        <time>2018-09-20T13:17:33Z</time>
      </trkpt>
      <trkpt lat="44.54994" lon="1.19961">
        <ele>245.27</ele>
        <time>2018-09-20T13:17:48Z</time>
      </trkpt>
      <trkpt lat="44.54973" lon="1.19907">
        <ele>250.08</ele>
        <time>2018-09-20T13:18:28Z</time>
      </trkpt>
      <trkpt lat="44.54941" lon="1.1989">
        <ele>254.41</ele>
        <time>2018-09-20T13:18:59Z</time>
      </trkpt>
      <trkpt lat="44.54914" lon="1.19887">
        <ele>254.89</ele>
        <time>2018-09-20T13:19:26Z</time>
      </trkpt>
      <trkpt lat="44.54871" lon="1.19855">
        <ele>256.33</ele>
        <time>2018-09-20T13:20:03Z</time>
      </trkpt>
      <trkpt lat="44.54859" lon="1.19841">
        <ele>256.33</ele>
        <time>2018-09-20T13:20:17Z</time>
      </trkpt>
      <trkpt lat="44.54841" lon="1.19825">
        <ele>256.33</ele>
        <time>2018-09-20T13:20:34Z</time>
      </trkpt>
      <trkpt lat="44.54828" lon="1.19814">
        <ele>256.33</ele>
        <time>2018-09-20T13:20:44Z</time>
      </trkpt>
      <trkpt lat="44.54818" lon="1.19804">
        <ele>256.81</ele>
        <time>2018-09-20T13:20:55Z</time>
      </trkpt>
      <trkpt lat="44.54801" lon="1.19781">
        <ele>256.81</ele>
        <time>2018-09-20T13:21:17Z</time>
      </trkpt>
      <trkpt lat="44.5479" lon="1.19769">
        <ele>256.81</ele>
        <time>2018-09-20T13:21:28Z</time>
      </trkpt>
      <trkpt lat="44.54756" lon="1.19731">
        <ele>259.21</ele>
        <time>2018-09-20T13:25:49Z</time>
      </trkpt>
      <trkpt lat="44.54737" lon="1.19729">
        <ele>257.29</ele>
        <time>2018-09-20T13:26:04Z</time>
      </trkpt>
      <trkpt lat="44.54716" lon="1.19725">
        <ele>256.33</ele>
        <time>2018-09-20T13:26:21Z</time>
      </trkpt>
      <trkpt lat="44.54697" lon="1.19721">
        <ele>255.37</ele>
        <time>2018-09-20T13:26:37Z</time>
      </trkpt>
      <trkpt lat="44.54685" lon="1.19715">
        <ele>254.89</ele>
        <time>2018-09-20T13:26:47Z</time>
      </trkpt>
      <trkpt lat="44.5467" lon="1.19708">
        <ele>254.89</ele>
        <time>2018-09-20T13:26:55Z</time>
      </trkpt>
      <trkpt lat="44.5466" lon="1.19706">
        <ele>254.89</ele>
        <time>2018-09-20T13:27:03Z</time>
      </trkpt>
      <trkpt lat="44.54649" lon="1.19705">
        <ele>254.89</ele>
        <time>2018-09-20T13:27:11Z</time>
      </trkpt>
      <trkpt lat="44.54638" lon="1.19704">
        <ele>254.41</ele>
        <time>2018-09-20T13:27:21Z</time>
      </trkpt>
      <trkpt lat="44.54628" lon="1.19704">
        <ele>254.41</ele>
        <time>2018-09-20T13:27:29Z</time>
      </trkpt>
      <trkpt lat="44.54617" lon="1.197">
        <ele>254.89</ele>
        <time>2018-09-20T13:27:37Z</time>
      </trkpt>
      <trkpt lat="44.54606" lon="1.19697">
        <ele>254.89</ele>
        <time>2018-09-20T13:27:45Z</time>
      </trkpt>
      <trkpt lat="44.54596" lon="1.19694">
        <ele>254.89</ele>
        <time>2018-09-20T13:27:53Z</time>
      </trkpt>
      <trkpt lat="44.54586" lon="1.19691">
        <ele>255.85</ele>
        <time>2018-09-20T13:28:01Z</time>
      </trkpt>
      <trkpt lat="44.54576" lon="1.19687">
        <ele>256.81</ele>
        <time>2018-09-20T13:28:09Z</time>
      </trkpt>
      <trkpt lat="44.54566" lon="1.19685">
        <ele>257.77</ele>
        <time>2018-09-20T13:28:18Z</time>
      </trkpt>
      <trkpt lat="44.54555" lon="1.19686">
        <ele>259.21</ele>
        <time>2018-09-20T13:28:28Z</time>
      </trkpt>
      <trkpt lat="44.54538" lon="1.19684">
        <ele>261.14</ele>
        <time>2018-09-20T13:28:45Z</time>
      </trkpt>
      <trkpt lat="44.5452" lon="1.19682">
        <ele>263.54</ele>
        <time>2018-09-20T13:29:01Z</time>
      </trkpt>
      <trkpt lat="44.54508" lon="1.19682">
        <ele>264.5</ele>
        <time>2018-09-20T13:29:11Z</time>
      </trkpt>
      <trkpt lat="44.54495" lon="1.19683">
        <ele>265.94</ele>
        <time>2018-09-20T13:29:21Z</time>
      </trkpt>
      <trkpt lat="44.5449" lon="1.19703">
        <ele>266.42</ele>
        <time>2018-09-20T13:29:39Z</time>
      </trkpt>
      <trkpt lat="44.54491" lon="1.1972">
        <ele>266.42</ele>
        <time>2018-09-20T13:29:50Z</time>
      </trkpt>
      <trkpt lat="44.54491" lon="1.19737">
        <ele>266.42</ele>
        <time>2018-09-20T13:30:00Z</time>
      </trkpt>
      <trkpt lat="44.54491" lon="1.19754">
        <ele>266.42</ele>
        <time>2018-09-20T13:30:10Z</time>
      </trkpt>
      <trkpt lat="44.54487" lon="1.19772">
        <ele>264.98</ele>
        <time>2018-09-20T13:30:21Z</time>
      </trkpt>
      <trkpt lat="44.54484" lon="1.19791">
        <ele>264.98</ele>
        <time>2018-09-20T13:30:32Z</time>
      </trkpt>
      <trkpt lat="44.54478" lon="1.19812">
        <ele>264.02</ele>
        <time>2018-09-20T13:30:45Z</time>
      </trkpt>
      <trkpt lat="44.54473" lon="1.19829">
        <ele>263.54</ele>
        <time>2018-09-20T13:30:55Z</time>
      </trkpt>
      <trkpt lat="44.54467" lon="1.19852">
        <ele>261.62</ele>
        <time>2018-09-20T13:31:12Z</time>
      </trkpt>
      <trkpt lat="44.5446" lon="1.19871">
        <ele>260.17</ele>
        <time>2018-09-20T13:31:23Z</time>
      </trkpt>
      <trkpt lat="44.54454" lon="1.19885">
        <ele>259.21</ele>
        <time>2018-09-20T13:31:32Z</time>
      </trkpt>
      <trkpt lat="44.54448" lon="1.19904">
        <ele>259.21</ele>
        <time>2018-09-20T13:31:44Z</time>
      </trkpt>
      <trkpt lat="44.54443" lon="1.19922">
        <ele>258.73</ele>
        <time>2018-09-20T13:31:54Z</time>
      </trkpt>
      <trkpt lat="44.54438" lon="1.1994">
        <ele>258.73</ele>
        <time>2018-09-20T13:32:04Z</time>
      </trkpt>
      <trkpt lat="44.54429" lon="1.1996">
        <ele>258.73</ele>
        <time>2018-09-20T13:32:18Z</time>
      </trkpt>
      <trkpt lat="44.54423" lon="1.19979">
        <ele>258.73</ele>
        <time>2018-09-20T13:32:29Z</time>
      </trkpt>
      <trkpt lat="44.54419" lon="1.19998">
        <ele>258.25</ele>
        <time>2018-09-20T13:32:40Z</time>
      </trkpt>
      <trkpt lat="44.54413" lon="1.20015">
        <ele>258.25</ele>
        <time>2018-09-20T13:32:51Z</time>
      </trkpt>
      <trkpt lat="44.54406" lon="1.2003">
        <ele>259.69</ele>
        <time>2018-09-20T13:33:02Z</time>
      </trkpt>
      <trkpt lat="44.54393" lon="1.20049">
        <ele>260.65</ele>
        <time>2018-09-20T13:33:20Z</time>
      </trkpt>
      <trkpt lat="44.5438" lon="1.20049">
        <ele>260.17</ele>
        <time>2018-09-20T13:33:29Z</time>
      </trkpt>
      <trkpt lat="44.54371" lon="1.20042">
        <ele>260.17</ele>
        <time>2018-09-20T13:33:40Z</time>
      </trkpt>
      <trkpt lat="44.5436" lon="1.20036">
        <ele>260.17</ele>
        <time>2018-09-20T13:33:51Z</time>
      </trkpt>
      <trkpt lat="44.54351" lon="1.20027">
        <ele>258.25</ele>
        <time>2018-09-20T13:34:01Z</time>
      </trkpt>
      <trkpt lat="44.54341" lon="1.20017">
        <ele>256.81</ele>
        <time>2018-09-20T13:34:11Z</time>
      </trkpt>
      <trkpt lat="44.5433" lon="1.20008">
        <ele>254.89</ele>
        <time>2018-09-20T13:34:21Z</time>
      </trkpt>
      <trkpt lat="44.54319" lon="1.20003">
        <ele>253.93</ele>
        <time>2018-09-20T13:34:32Z</time>
      </trkpt>
      <trkpt lat="44.54307" lon="1.20005">
        <ele>252</ele>
        <time>2018-09-20T13:34:43Z</time>
      </trkpt>
      <trkpt lat="44.54293" lon="1.20008">
        <ele>250.56</ele>
        <time>2018-09-20T13:34:53Z</time>
      </trkpt>
      <trkpt lat="44.54281" lon="1.2001">
        <ele>249.6</ele>
        <time>2018-09-20T13:35:03Z</time>
      </trkpt>
      <trkpt lat="44.5427" lon="1.20014">
        <ele>248.64</ele>
        <time>2018-09-20T13:35:13Z</time>
      </trkpt>
      <trkpt lat="44.54258" lon="1.20013">
        <ele>247.2</ele>
        <time>2018-09-20T13:35:23Z</time>
      </trkpt>
      <trkpt lat="44.54246" lon="1.20008">
        <ele>245.27</ele>
        <time>2018-09-20T13:35:37Z</time>
      </trkpt>
      <trkpt lat="44.54237" lon="1.19999">
        <ele>244.31</ele>
        <time>2018-09-20T13:35:49Z</time>
      </trkpt>
      <trkpt lat="44.54233" lon="1.19984">
        <ele>242.87</ele>
        <time>2018-09-20T13:36:00Z</time>
      </trkpt>
      <trkpt lat="44.54238" lon="1.1996">
        <ele>243.35</ele>
        <time>2018-09-20T13:38:42Z</time>
      </trkpt>
      <trkpt lat="44.54245" lon="1.19947">
        <ele>242.39</ele>
        <time>2018-09-20T13:38:52Z</time>
      </trkpt>
      <trkpt lat="44.54251" lon="1.19926">
        <ele>241.43</ele>
        <time>2018-09-20T13:39:09Z</time>
      </trkpt>
      <trkpt lat="44.54253" lon="1.199">
        <ele>240.47</ele>
        <time>2018-09-20T13:39:26Z</time>
      </trkpt>
      <trkpt lat="44.5425" lon="1.19881">
        <ele>240.47</ele>
        <time>2018-09-20T13:39:35Z</time>
      </trkpt>
      <trkpt lat="44.54243" lon="1.19865">
        <ele>240.47</ele>
        <time>2018-09-20T13:39:44Z</time>
      </trkpt>
      <trkpt lat="44.54231" lon="1.19853">
        <ele>241.43</ele>
        <time>2018-09-20T13:39:55Z</time>
      </trkpt>
      <trkpt lat="44.54219" lon="1.19855">
        <ele>242.39</ele>
        <time>2018-09-20T13:40:05Z</time>
      </trkpt>
      <trkpt lat="44.54205" lon="1.1986">
        <ele>242.39</ele>
        <time>2018-09-20T13:40:15Z</time>
      </trkpt>
      <trkpt lat="44.54192" lon="1.19863">
        <ele>242.39</ele>
        <time>2018-09-20T13:40:24Z</time>
      </trkpt>
      <trkpt lat="44.5418" lon="1.19866">
        <ele>242.39</ele>
        <time>2018-09-20T13:40:33Z</time>
      </trkpt>
      <trkpt lat="44.54168" lon="1.19866">
        <ele>242.39</ele>
        <time>2018-09-20T13:40:42Z</time>
      </trkpt>
      <trkpt lat="44.54155" lon="1.19862">
        <ele>240.95</ele>
        <time>2018-09-20T13:40:54Z</time>
      </trkpt>
      <trkpt lat="44.54141" lon="1.19859">
        <ele>240.47</ele>
        <time>2018-09-20T13:41:06Z</time>
      </trkpt>
      <trkpt lat="44.54128" lon="1.19849">
        <ele>239.02</ele>
        <time>2018-09-20T13:41:19Z</time>
      </trkpt>
      <trkpt lat="44.54119" lon="1.19834">
        <ele>238.06</ele>
        <time>2018-09-20T13:41:30Z</time>
      </trkpt>
      <trkpt lat="44.54111" lon="1.19822">
        <ele>238.06</ele>
        <time>2018-09-20T13:41:38Z</time>
      </trkpt>
      <trkpt lat="44.54101" lon="1.19805">
        <ele>238.06</ele>
        <time>2018-09-20T13:41:51Z</time>
      </trkpt>
      <trkpt lat="44.54089" lon="1.19784">
        <ele>237.58</ele>
        <time>2018-09-20T13:42:04Z</time>
      </trkpt>
      <trkpt lat="44.54081" lon="1.19766">
        <ele>237.1</ele>
        <time>2018-09-20T13:42:14Z</time>
      </trkpt>
      <trkpt lat="44.54072" lon="1.19754">
        <ele>237.1</ele>
        <time>2018-09-20T13:42:26Z</time>
      </trkpt>
      <trkpt lat="44.54049" lon="1.19759">
        <ele>234.22</ele>
        <time>2018-09-20T13:42:49Z</time>
      </trkpt>
      <trkpt lat="44.54038" lon="1.19764">
        <ele>233.74</ele>
        <time>2018-09-20T13:42:58Z</time>
      </trkpt>
      <trkpt lat="44.54025" lon="1.19773">
        <ele>235.66</ele>
        <time>2018-09-20T13:43:10Z</time>
      </trkpt>
      <trkpt lat="44.54013" lon="1.19797">
        <ele>238.54</ele>
        <time>2018-09-20T13:43:29Z</time>
      </trkpt>
      <trkpt lat="44.54005" lon="1.19809">
        <ele>239.99</ele>
        <time>2018-09-20T13:43:40Z</time>
      </trkpt>
      <trkpt lat="44.53994" lon="1.19827">
        <ele>241.43</ele>
        <time>2018-09-20T13:43:56Z</time>
      </trkpt>
      <trkpt lat="44.53983" lon="1.19836">
        <ele>241.91</ele>
        <time>2018-09-20T13:44:07Z</time>
      </trkpt>
      <trkpt lat="44.5397" lon="1.19843">
        <ele>243.35</ele>
        <time>2018-09-20T13:44:19Z</time>
      </trkpt>
      <trkpt lat="44.53956" lon="1.1985">
        <ele>244.31</ele>
        <time>2018-09-20T13:44:30Z</time>
      </trkpt>
      <trkpt lat="44.53938" lon="1.19866">
        <ele>245.27</ele>
        <time>2018-09-20T13:44:48Z</time>
      </trkpt>
      <trkpt lat="44.53925" lon="1.19882">
        <ele>244.31</ele>
        <time>2018-09-20T13:44:58Z</time>
      </trkpt>
      <trkpt lat="44.53913" lon="1.19895">
        <ele>244.31</ele>
        <time>2018-09-20T13:45:09Z</time>
      </trkpt>
      <trkpt lat="44.53899" lon="1.19906">
        <ele>244.31</ele>
        <time>2018-09-20T13:45:22Z</time>
      </trkpt>
      <trkpt lat="44.53883" lon="1.1992">
        <ele>243.35</ele>
        <time>2018-09-20T13:45:39Z</time>
      </trkpt>
      <trkpt lat="44.5387" lon="1.19931">
        <ele>242.87</ele>
        <time>2018-09-20T13:45:51Z</time>
      </trkpt>
      <trkpt lat="44.53857" lon="1.1994">
        <ele>241.91</ele>
        <time>2018-09-20T13:46:04Z</time>
      </trkpt>
      <trkpt lat="44.53848" lon="1.19945">
        <ele>241.43</ele>
        <time>2018-09-20T13:47:25Z</time>
      </trkpt>
      <trkpt lat="44.5384" lon="1.19954">
        <ele>241.43</ele>
        <time>2018-09-20T13:47:35Z</time>
      </trkpt>
      <trkpt lat="44.5383" lon="1.19961">
        <ele>240.95</ele>
        <time>2018-09-20T13:47:43Z</time>
      </trkpt>
      <trkpt lat="44.5382" lon="1.19966">
        <ele>239.51</ele>
        <time>2018-09-20T13:47:51Z</time>
      </trkpt>
      <trkpt lat="44.5381" lon="1.1997">
        <ele>239.51</ele>
        <time>2018-09-20T13:47:59Z</time>
      </trkpt>
      <trkpt lat="44.538" lon="1.19974">
        <ele>239.51</ele>
        <time>2018-09-20T13:48:07Z</time>
      </trkpt>
      <trkpt lat="44.53791" lon="1.19978">
        <ele>239.51</ele>
        <time>2018-09-20T13:48:19Z</time>
      </trkpt>
      <trkpt lat="44.53782" lon="1.19988">
        <ele>238.54</ele>
        <time>2018-09-20T13:48:27Z</time>
      </trkpt>
      <trkpt lat="44.53773" lon="1.19996">
        <ele>238.06</ele>
        <time>2018-09-20T13:48:34Z</time>
      </trkpt>
      <trkpt lat="44.53765" lon="1.20006">
        <ele>237.1</ele>
        <time>2018-09-20T13:48:42Z</time>
      </trkpt>
      <trkpt lat="44.53758" lon="1.20015">
        <ele>236.62</ele>
        <time>2018-09-20T13:48:51Z</time>
      </trkpt>
      <trkpt lat="44.53757" lon="1.20014">
        <ele>236.14</ele>
        <time>2018-09-20T13:49:06Z</time>
      </trkpt>
      <trkpt lat="44.53764" lon="1.20003">
        <ele>236.14</ele>
        <time>2018-09-20T13:49:15Z</time>
      </trkpt>
      <trkpt lat="44.53772" lon="1.19993">
        <ele>238.06</ele>
        <time>2018-09-20T13:49:25Z</time>
      </trkpt>
      <trkpt lat="44.5378" lon="1.19983">
        <ele>239.02</ele>
        <time>2018-09-20T13:49:35Z</time>
      </trkpt>
      <trkpt lat="44.53786" lon="1.19972">
        <ele>239.02</ele>
        <time>2018-09-20T13:49:45Z</time>
      </trkpt>
      <trkpt lat="44.53793" lon="1.19956">
        <ele>239.02</ele>
        <time>2018-09-20T13:50:02Z</time>
      </trkpt>
      <trkpt lat="44.53795" lon="1.19939">
        <ele>238.06</ele>
        <time>2018-09-20T13:50:12Z</time>
      </trkpt>
      <trkpt lat="44.53792" lon="1.19925">
        <ele>238.06</ele>
        <time>2018-09-20T13:50:21Z</time>
      </trkpt>
      <trkpt lat="44.53787" lon="1.19912">
        <ele>237.58</ele>
        <time>2018-09-20T13:50:30Z</time>
      </trkpt>
      <trkpt lat="44.53778" lon="1.19901">
        <ele>237.58</ele>
        <time>2018-09-20T13:50:41Z</time>
      </trkpt>
      <trkpt lat="44.53766" lon="1.19896">
        <ele>237.58</ele>
        <time>2018-09-20T13:50:51Z</time>
      </trkpt>
      <trkpt lat="44.53755" lon="1.19895">
        <ele>237.58</ele>
        <time>2018-09-20T13:51:00Z</time>
      </trkpt>
      <trkpt lat="44.53744" lon="1.19895">
        <ele>238.54</ele>
        <time>2018-09-20T13:51:09Z</time>
      </trkpt>
      <trkpt lat="44.53733" lon="1.19894">
        <ele>239.02</ele>
        <time>2018-09-20T13:51:19Z</time>
      </trkpt>
      <trkpt lat="44.5372" lon="1.19896">
        <ele>239.51</ele>
        <time>2018-09-20T13:51:31Z</time>
      </trkpt>
      <trkpt lat="44.53704" lon="1.19901">
        <ele>240.47</ele>
        <time>2018-09-20T13:51:45Z</time>
      </trkpt>
      <trkpt lat="44.53691" lon="1.19906">
        <ele>240.95</ele>
        <time>2018-09-20T13:51:56Z</time>
      </trkpt>
      <trkpt lat="44.53678" lon="1.19908">
        <ele>241.91</ele>
        <time>2018-09-20T13:52:07Z</time>
      </trkpt>
      <trkpt lat="44.53675" lon="1.19901">
        <ele>242.87</ele>
        <time>2018-09-20T13:52:18Z</time>
      </trkpt>
      <trkpt lat="44.53682" lon="1.19892">
        <ele>244.31</ele>
        <time>2018-09-20T13:52:29Z</time>
      </trkpt>
      <trkpt lat="44.53689" lon="1.19879">
        <ele>245.75</ele>
        <time>2018-09-20T13:52:39Z</time>
      </trkpt>
      <trkpt lat="44.53699" lon="1.19871">
        <ele>247.2</ele>
        <time>2018-09-20T13:52:49Z</time>
      </trkpt>
      <trkpt lat="44.5371" lon="1.19863">
        <ele>248.16</ele>
        <time>2018-09-20T13:53:00Z</time>
      </trkpt>
      <trkpt lat="44.5372" lon="1.19854">
        <ele>248.64</ele>
        <time>2018-09-20T13:53:10Z</time>
      </trkpt>
      <trkpt lat="44.53728" lon="1.19841">
        <ele>250.08</ele>
        <time>2018-09-20T13:53:20Z</time>
      </trkpt>
      <trkpt lat="44.53733" lon="1.19826">
        <ele>251.04</ele>
        <time>2018-09-20T13:53:31Z</time>
      </trkpt>
      <trkpt lat="44.53736" lon="1.19809">
        <ele>252.96</ele>
        <time>2018-09-20T13:53:43Z</time>
      </trkpt>
      <trkpt lat="44.53746" lon="1.19795">
        <ele>253.93</ele>
        <time>2018-09-20T13:53:56Z</time>
      </trkpt>
      <trkpt lat="44.53758" lon="1.19779">
        <ele>254.89</ele>
        <time>2018-09-20T13:54:11Z</time>
      </trkpt>
      <trkpt lat="44.53779" lon="1.19767">
        <ele>257.29</ele>
        <time>2018-09-20T13:54:33Z</time>
      </trkpt>
      <trkpt lat="44.53796" lon="1.19765">
        <ele>258.73</ele>
        <time>2018-09-20T13:54:46Z</time>
      </trkpt>
      <trkpt lat="44.53807" lon="1.19757">
        <ele>260.17</ele>
        <time>2018-09-20T13:54:57Z</time>
      </trkpt>
      <trkpt lat="44.53818" lon="1.1974">
        <ele>261.14</ele>
        <time>2018-09-20T13:55:12Z</time>
      </trkpt>
      <trkpt lat="44.53822" lon="1.19721">
        <ele>261.14</ele>
        <time>2018-09-20T13:55:21Z</time>
      </trkpt>
      <trkpt lat="44.53827" lon="1.19707">
        <ele>261.62</ele>
        <time>2018-09-20T13:55:30Z</time>
      </trkpt>
      <trkpt lat="44.53836" lon="1.19696">
        <ele>262.1</ele>
        <time>2018-09-20T13:55:40Z</time>
      </trkpt>
      <trkpt lat="44.53846" lon="1.19685">
        <ele>262.58</ele>
        <time>2018-09-20T13:55:50Z</time>
      </trkpt>
      <trkpt lat="44.53854" lon="1.1967">
        <ele>263.06</ele>
        <time>2018-09-20T13:55:59Z</time>
      </trkpt>
      <trkpt lat="44.53853" lon="1.1967">
        <ele>263.06</ele>
        <time>2018-09-20T13:56:19Z</time>
      </trkpt>
      <trkpt lat="44.53847" lon="1.19681">
        <ele>263.06</ele>
        <time>2018-09-20T13:56:27Z</time>
      </trkpt>
      <trkpt lat="44.53838" lon="1.1969">
        <ele>263.06</ele>
        <time>2018-09-20T13:56:36Z</time>
      </trkpt>
      <trkpt lat="44.5383" lon="1.19703">
        <ele>262.1</ele>
        <time>2018-09-20T13:56:44Z</time>
      </trkpt>
      <trkpt lat="44.53825" lon="1.19719">
        <ele>261.62</ele>
        <time>2018-09-20T13:56:54Z</time>
      </trkpt>
      <trkpt lat="44.53819" lon="1.19736">
        <ele>261.62</ele>
        <time>2018-09-20T13:57:05Z</time>
      </trkpt>
      <trkpt lat="44.5381" lon="1.19747">
        <ele>261.14</ele>
        <time>2018-09-20T13:57:13Z</time>
      </trkpt>
      <trkpt lat="44.53806" lon="1.19723">
        <ele>259.69</ele>
        <time>2018-09-20T13:57:34Z</time>
      </trkpt>
      <trkpt lat="44.538" lon="1.19703">
        <ele>259.21</ele>
        <time>2018-09-20T13:57:50Z</time>
      </trkpt>
      <trkpt lat="44.53794" lon="1.19688">
        <ele>258.25</ele>
        <time>2018-09-20T13:58:05Z</time>
      </trkpt>
      <trkpt lat="44.538" lon="1.19691">
        <ele>259.69</ele>
        <time>2018-09-20T14:01:56Z</time>
      </trkpt>
      <trkpt lat="44.53792" lon="1.19676">
        <ele>259.69</ele>
        <time>2018-09-20T14:02:09Z</time>
      </trkpt>
      <trkpt lat="44.53794" lon="1.19678">
        <ele>263.06</ele>
        <time>2018-09-20T14:10:26Z</time>
      </trkpt>
      <trkpt lat="44.53776" lon="1.19641">
        <ele>259.69</ele>
        <time>2018-09-20T14:11:29Z</time>
      </trkpt>
      <trkpt lat="44.5377" lon="1.19619">
        <ele>259.21</ele>
        <time>2018-09-20T14:11:46Z</time>
      </trkpt>
      <trkpt lat="44.53766" lon="1.19598">
        <ele>258.25</ele>
        <time>2018-09-20T14:12:01Z</time>
      </trkpt>
      <trkpt lat="44.53761" lon="1.19577">
        <ele>257.29</ele>
        <time>2018-09-20T14:12:17Z</time>
      </trkpt>
      <trkpt lat="44.53755" lon="1.19558">
        <ele>256.81</ele>
        <time>2018-09-20T14:12:31Z</time>
      </trkpt>
      <trkpt lat="44.5375" lon="1.19541">
        <ele>255.85</ele>
        <time>2018-09-20T14:12:42Z</time>
      </trkpt>
      <trkpt lat="44.53745" lon="1.19518">
        <ele>255.85</ele>
        <time>2018-09-20T14:12:56Z</time>
      </trkpt>
      <trkpt lat="44.53742" lon="1.19497">
        <ele>255.37</ele>
        <time>2018-09-20T14:13:08Z</time>
      </trkpt>
      <trkpt lat="44.53738" lon="1.19477">
        <ele>254.41</ele>
        <time>2018-09-20T14:13:19Z</time>
      </trkpt>
      <trkpt lat="44.53732" lon="1.19458">
        <ele>254.41</ele>
        <time>2018-09-20T14:13:30Z</time>
      </trkpt>
      <trkpt lat="44.53727" lon="1.19443">
        <ele>253.93</ele>
        <time>2018-09-20T14:13:39Z</time>
      </trkpt>
      <trkpt lat="44.53724" lon="1.19428">
        <ele>253.93</ele>
        <time>2018-09-20T14:13:48Z</time>
      </trkpt>
      <trkpt lat="44.53725" lon="1.19411">
        <ele>252.96</ele>
        <time>2018-09-20T14:13:57Z</time>
      </trkpt>
      <trkpt lat="44.5373" lon="1.19397">
        <ele>252.48</ele>
        <time>2018-09-20T14:14:07Z</time>
      </trkpt>
      <trkpt lat="44.53733" lon="1.19382">
        <ele>251.04</ele>
        <time>2018-09-20T14:14:19Z</time>
      </trkpt>
      <trkpt lat="44.5373" lon="1.19365">
        <ele>249.12</ele>
        <time>2018-09-20T14:14:31Z</time>
      </trkpt>
      <trkpt lat="44.53739" lon="1.19355">
        <ele>246.72</ele>
        <time>2018-09-20T14:14:43Z</time>
      </trkpt>
      <trkpt lat="44.5375" lon="1.19351">
        <ele>244.79</ele>
        <time>2018-09-20T14:14:54Z</time>
      </trkpt>
      <trkpt lat="44.53761" lon="1.19354">
        <ele>243.83</ele>
        <time>2018-09-20T14:15:08Z</time>
      </trkpt>
      <trkpt lat="44.53773" lon="1.19348">
        <ele>241.91</ele>
        <time>2018-09-20T14:15:25Z</time>
      </trkpt>
      <trkpt lat="44.53769" lon="1.19333">
        <ele>239.99</ele>
        <time>2018-09-20T14:15:38Z</time>
      </trkpt>
      <trkpt lat="44.53768" lon="1.19319">
        <ele>237.58</ele>
        <time>2018-09-20T14:15:49Z</time>
      </trkpt>
      <trkpt lat="44.53769" lon="1.19302">
        <ele>236.62</ele>
        <time>2018-09-20T14:16:01Z</time>
      </trkpt>
      <trkpt lat="44.53774" lon="1.19287">
        <ele>235.18</ele>
        <time>2018-09-20T14:16:15Z</time>
      </trkpt>
      <trkpt lat="44.53781" lon="1.1927">
        <ele>232.78</ele>
        <time>2018-09-20T14:16:30Z</time>
      </trkpt>
      <trkpt lat="44.53787" lon="1.19251">
        <ele>229.41</ele>
        <time>2018-09-20T14:16:47Z</time>
      </trkpt>
      <trkpt lat="44.53785" lon="1.19206">
        <ele>227.01</ele>
        <time>2018-09-20T14:18:11Z</time>
      </trkpt>
      <trkpt lat="44.5379" lon="1.19192">
        <ele>226.53</ele>
        <time>2018-09-20T14:18:22Z</time>
      </trkpt>
      <trkpt lat="44.53792" lon="1.19176">
        <ele>226.53</ele>
        <time>2018-09-20T14:18:39Z</time>
      </trkpt>
      <trkpt lat="44.53793" lon="1.19162">
        <ele>226.53</ele>
        <time>2018-09-20T14:18:48Z</time>
      </trkpt>
      <trkpt lat="44.53785" lon="1.19151">
        <ele>227.49</ele>
        <time>2018-09-20T14:19:08Z</time>
      </trkpt>
      <trkpt lat="44.53772" lon="1.19145">
        <ele>227.97</ele>
        <time>2018-09-20T14:19:23Z</time>
      </trkpt>
      <trkpt lat="44.53759" lon="1.19138">
        <ele>227.97</ele>
        <time>2018-09-20T14:19:34Z</time>
      </trkpt>
      <trkpt lat="44.5375" lon="1.19129">
        <ele>227.97</ele>
        <time>2018-09-20T14:19:44Z</time>
      </trkpt>
      <trkpt lat="44.53741" lon="1.19118">
        <ele>225.57</ele>
        <time>2018-09-20T14:19:54Z</time>
      </trkpt>
      <trkpt lat="44.53731" lon="1.19101">
        <ele>225.09</ele>
        <time>2018-09-20T14:20:10Z</time>
      </trkpt>
      <trkpt lat="44.53719" lon="1.19085">
        <ele>224.61</ele>
        <time>2018-09-20T14:20:25Z</time>
      </trkpt>
      <trkpt lat="44.53705" lon="1.19072">
        <ele>224.12</ele>
        <time>2018-09-20T14:20:35Z</time>
      </trkpt>
      <trkpt lat="44.5369" lon="1.19051">
        <ele>224.12</ele>
        <time>2018-09-20T14:20:51Z</time>
      </trkpt>
      <trkpt lat="44.5368" lon="1.1904">
        <ele>224.12</ele>
        <time>2018-09-20T14:21:00Z</time>
      </trkpt>
      <trkpt lat="44.53671" lon="1.19031">
        <ele>224.12</ele>
        <time>2018-09-20T14:21:10Z</time>
      </trkpt>
      <trkpt lat="44.53656" lon="1.19021">
        <ele>226.05</ele>
        <time>2018-09-20T14:21:27Z</time>
      </trkpt>
      <trkpt lat="44.53645" lon="1.19018">
        <ele>226.53</ele>
        <time>2018-09-20T14:21:37Z</time>
      </trkpt>
      <trkpt lat="44.53633" lon="1.19013">
        <ele>226.53</ele>
        <time>2018-09-20T14:21:47Z</time>
      </trkpt>
      <trkpt lat="44.5362" lon="1.19012">
        <ele>227.01</ele>
        <time>2018-09-20T14:21:57Z</time>
      </trkpt>
      <trkpt lat="44.5361" lon="1.1901">
        <ele>227.49</ele>
        <time>2018-09-20T14:22:06Z</time>
      </trkpt>
      <trkpt lat="44.53599" lon="1.19007">
        <ele>227.49</ele>
        <time>2018-09-20T14:22:15Z</time>
      </trkpt>
      <trkpt lat="44.53591" lon="1.18997">
        <ele>228.93</ele>
        <time>2018-09-20T14:22:28Z</time>
      </trkpt>
      <trkpt lat="44.53586" lon="1.18985">
        <ele>229.89</ele>
        <time>2018-09-20T14:22:37Z</time>
      </trkpt>
      <trkpt lat="44.53586" lon="1.18975">
        <ele>231.33</ele>
        <time>2018-09-20T14:22:49Z</time>
      </trkpt>
      <trkpt lat="44.53595" lon="1.18975">
        <ele>232.78</ele>
        <time>2018-09-20T14:23:01Z</time>
      </trkpt>
      <trkpt lat="44.53605" lon="1.18977">
        <ele>233.74</ele>
        <time>2018-09-20T14:23:12Z</time>
      </trkpt>
      <trkpt lat="44.53614" lon="1.1898">
        <ele>235.18</ele>
        <time>2018-09-20T14:23:23Z</time>
      </trkpt>
      <trkpt lat="44.53624" lon="1.18981">
        <ele>236.62</ele>
        <time>2018-09-20T14:23:33Z</time>
      </trkpt>
      <trkpt lat="44.53634" lon="1.18982">
        <ele>238.06</ele>
        <time>2018-09-20T14:23:43Z</time>
      </trkpt>
      <trkpt lat="44.53643" lon="1.18985">
        <ele>238.54</ele>
        <time>2018-09-20T14:23:52Z</time>
      </trkpt>
      <trkpt lat="44.53654" lon="1.18983">
        <ele>239.51</ele>
        <time>2018-09-20T14:24:02Z</time>
      </trkpt>
      <trkpt lat="44.53664" lon="1.1898">
        <ele>239.99</ele>
        <time>2018-09-20T14:24:11Z</time>
      </trkpt>
      <trkpt lat="44.53675" lon="1.18979">
        <ele>240.47</ele>
        <time>2018-09-20T14:24:21Z</time>
      </trkpt>
      <trkpt lat="44.53685" lon="1.18977">
        <ele>240.47</ele>
        <time>2018-09-20T14:24:30Z</time>
      </trkpt>
      <trkpt lat="44.53698" lon="1.18972">
        <ele>240.47</ele>
        <time>2018-09-20T14:24:46Z</time>
      </trkpt>
      <trkpt lat="44.53713" lon="1.18977">
        <ele>240.47</ele>
        <time>2018-09-20T14:25:01Z</time>
      </trkpt>
      <trkpt lat="44.53725" lon="1.18983">
        <ele>240.47</ele>
        <time>2018-09-20T14:25:12Z</time>
      </trkpt>
      <trkpt lat="44.53741" lon="1.18988">
        <ele>240.95</ele>
        <time>2018-09-20T14:25:44Z</time>
      </trkpt>
      <trkpt lat="44.53769" lon="1.18987">
        <ele>242.87</ele>
        <time>2018-09-20T14:26:13Z</time>
      </trkpt>
      <trkpt lat="44.53788" lon="1.18987">
        <ele>245.27</ele>
        <time>2018-09-20T14:26:32Z</time>
      </trkpt>
      <trkpt lat="44.53809" lon="1.18985">
        <ele>246.23</ele>
        <time>2018-09-20T14:26:55Z</time>
      </trkpt>
      <trkpt lat="44.53823" lon="1.18982">
        <ele>247.2</ele>
        <time>2018-09-20T14:27:07Z</time>
      </trkpt>
      <trkpt lat="44.53837" lon="1.18981">
        <ele>247.68</ele>
        <time>2018-09-20T14:27:19Z</time>
      </trkpt>
      <trkpt lat="44.5385" lon="1.18981">
        <ele>248.16</ele>
        <time>2018-09-20T14:27:31Z</time>
      </trkpt>
      <trkpt lat="44.53866" lon="1.18981">
        <ele>248.16</ele>
        <time>2018-09-20T14:27:45Z</time>
      </trkpt>
      <trkpt lat="44.53882" lon="1.18981">
        <ele>248.64</ele>
        <time>2018-09-20T14:27:59Z</time>
      </trkpt>
      <trkpt lat="44.539" lon="1.18979">
        <ele>249.12</ele>
        <time>2018-09-20T14:28:13Z</time>
      </trkpt>
      <trkpt lat="44.53916" lon="1.18976">
        <ele>251.52</ele>
        <time>2018-09-20T14:28:29Z</time>
      </trkpt>
      <trkpt lat="44.53932" lon="1.18976">
        <ele>252.96</ele>
        <time>2018-09-20T14:28:40Z</time>
      </trkpt>
      <trkpt lat="44.53945" lon="1.18974">
        <ele>254.41</ele>
        <time>2018-09-20T14:28:52Z</time>
      </trkpt>
      <trkpt lat="44.53959" lon="1.18973">
        <ele>255.37</ele>
        <time>2018-09-20T14:29:05Z</time>
      </trkpt>
      <trkpt lat="44.53974" lon="1.18972">
        <ele>258.25</ele>
        <time>2018-09-20T14:29:20Z</time>
      </trkpt>
      <trkpt lat="44.5399" lon="1.18969">
        <ele>260.17</ele>
        <time>2018-09-20T14:29:38Z</time>
      </trkpt>
      <trkpt lat="44.54003" lon="1.18961">
        <ele>262.1</ele>
        <time>2018-09-20T14:29:51Z</time>
      </trkpt>
      <trkpt lat="44.54015" lon="1.18956">
        <ele>262.1</ele>
        <time>2018-09-20T14:30:03Z</time>
      </trkpt>
      <trkpt lat="44.54029" lon="1.1895">
        <ele>263.06</ele>
        <time>2018-09-20T14:30:16Z</time>
      </trkpt>
      <trkpt lat="44.54043" lon="1.18946">
        <ele>263.54</ele>
        <time>2018-09-20T14:30:27Z</time>
      </trkpt>
      <trkpt lat="44.54056" lon="1.18944">
        <ele>264.02</ele>
        <time>2018-09-20T14:30:38Z</time>
      </trkpt>
      <trkpt lat="44.54071" lon="1.18947">
        <ele>264.5</ele>
        <time>2018-09-20T14:30:52Z</time>
      </trkpt>
      <trkpt lat="44.54094" lon="1.18952">
        <ele>265.46</ele>
        <time>2018-09-20T14:31:13Z</time>
      </trkpt>
      <trkpt lat="44.54116" lon="1.18956">
        <ele>266.9</ele>
        <time>2018-09-20T14:31:33Z</time>
      </trkpt>
      <trkpt lat="44.54131" lon="1.18958">
        <ele>267.38</ele>
        <time>2018-09-20T14:31:44Z</time>
      </trkpt>
      <trkpt lat="44.54141" lon="1.18963">
        <ele>267.86</ele>
        <time>2018-09-20T14:31:55Z</time>
      </trkpt>
      <trkpt lat="44.54152" lon="1.1897">
        <ele>268.35</ele>
        <time>2018-09-20T14:32:07Z</time>
      </trkpt>
      <trkpt lat="44.54162" lon="1.18979">
        <ele>267.86</ele>
        <time>2018-09-20T14:32:18Z</time>
      </trkpt>
      <trkpt lat="44.54171" lon="1.18987">
        <ele>267.86</ele>
        <time>2018-09-20T14:32:27Z</time>
      </trkpt>
      <trkpt lat="44.54179" lon="1.18998">
        <ele>267.86</ele>
        <time>2018-09-20T14:32:36Z</time>
      </trkpt>
      <trkpt lat="44.54187" lon="1.19008">
        <ele>267.86</ele>
        <time>2018-09-20T14:32:45Z</time>
      </trkpt>
      <trkpt lat="44.54194" lon="1.19018">
        <ele>267.86</ele>
        <time>2018-09-20T14:32:54Z</time>
      </trkpt>
      <trkpt lat="44.54201" lon="1.19026">
        <ele>266.9</ele>
        <time>2018-09-20T14:33:03Z</time>
      </trkpt>
      <trkpt lat="44.5421" lon="1.19035">
        <ele>266.9</ele>
        <time>2018-09-20T14:33:14Z</time>
      </trkpt>
      <trkpt lat="44.54218" lon="1.19044">
        <ele>266.9</ele>
        <time>2018-09-20T14:33:23Z</time>
      </trkpt>
      <trkpt lat="44.54226" lon="1.19053">
        <ele>267.86</ele>
        <time>2018-09-20T14:33:33Z</time>
      </trkpt>
      <trkpt lat="44.54234" lon="1.19062">
        <ele>268.35</ele>
        <time>2018-09-20T14:33:43Z</time>
      </trkpt>
      <trkpt lat="44.54244" lon="1.19072">
        <ele>268.83</ele>
        <time>2018-09-20T14:33:54Z</time>
      </trkpt>
      <trkpt lat="44.54255" lon="1.19081">
        <ele>268.83</ele>
        <time>2018-09-20T14:34:05Z</time>
      </trkpt>
      <trkpt lat="44.54267" lon="1.1909">
        <ele>268.83</ele>
        <time>2018-09-20T14:34:16Z</time>
      </trkpt>
      <trkpt lat="44.5428" lon="1.191">
        <ele>267.86</ele>
        <time>2018-09-20T14:34:27Z</time>
      </trkpt>
      <trkpt lat="44.54291" lon="1.19107">
        <ele>267.38</ele>
        <time>2018-09-20T14:34:39Z</time>
      </trkpt>
      <trkpt lat="44.54286" lon="1.19096">
        <ele>268.35</ele>
        <time>2018-09-20T14:41:07Z</time>
      </trkpt>
      <trkpt lat="44.54323" lon="1.19202">
        <ele>275.07</ele>
        <time>2018-09-20T14:42:26Z</time>
      </trkpt>
      <trkpt lat="44.54321" lon="1.19243">
        <ele>278.44</ele>
        <time>2018-09-20T14:42:56Z</time>
      </trkpt>
      <trkpt lat="44.54318" lon="1.19243">
        <ele>278.92</ele>
        <time>2018-09-20T14:43:12Z</time>
      </trkpt>
      <trkpt lat="44.54327" lon="1.19235">
        <ele>278.92</ele>
        <time>2018-09-20T14:43:22Z</time>
      </trkpt>
      <trkpt lat="44.54336" lon="1.1923">
        <ele>278.92</ele>
        <time>2018-09-20T14:43:32Z</time>
      </trkpt>
      <trkpt lat="44.54359" lon="1.19216">
        <ele>278.92</ele>
        <time>2018-09-20T14:43:54Z</time>
      </trkpt>
      <trkpt lat="44.54382" lon="1.19208">
        <ele>278.92</ele>
        <time>2018-09-20T14:44:12Z</time>
      </trkpt>
      <trkpt lat="44.54409" lon="1.19207">
        <ele>277.48</ele>
        <time>2018-09-20T14:44:32Z</time>
      </trkpt>
      <trkpt lat="44.54425" lon="1.19205">
        <ele>276.04</ele>
        <time>2018-09-20T14:44:45Z</time>
      </trkpt>
      <trkpt lat="44.54438" lon="1.19197">
        <ele>275.07</ele>
        <time>2018-09-20T14:44:57Z</time>
      </trkpt>
      <trkpt lat="44.54458" lon="1.19183">
        <ele>274.59</ele>
        <time>2018-09-20T14:45:20Z</time>
      </trkpt>
      <trkpt lat="44.54477" lon="1.19168">
        <ele>274.59</ele>
        <time>2018-09-20T14:45:34Z</time>
      </trkpt>
      <trkpt lat="44.54492" lon="1.19153">
        <ele>274.11</ele>
        <time>2018-09-20T14:45:45Z</time>
      </trkpt>
      <trkpt lat="44.54506" lon="1.19141">
        <ele>274.11</ele>
        <time>2018-09-20T14:45:59Z</time>
      </trkpt>
      <trkpt lat="44.54521" lon="1.19124">
        <ele>274.11</ele>
        <time>2018-09-20T14:46:13Z</time>
      </trkpt>
      <trkpt lat="44.54537" lon="1.19112">
        <ele>275.07</ele>
        <time>2018-09-20T14:46:25Z</time>
      </trkpt>
      <trkpt lat="44.54548" lon="1.191">
        <ele>275.07</ele>
        <time>2018-09-20T14:46:38Z</time>
      </trkpt>
      <trkpt lat="44.54557" lon="1.19087">
        <ele>273.63</ele>
        <time>2018-09-20T14:46:49Z</time>
      </trkpt>
      <trkpt lat="44.54581" lon="1.19062">
        <ele>271.23</ele>
        <time>2018-09-20T14:47:17Z</time>
      </trkpt>
      <trkpt lat="44.54602" lon="1.19045">
        <ele>269.31</ele>
        <time>2018-09-20T14:47:40Z</time>
      </trkpt>
      <trkpt lat="44.54621" lon="1.19035">
        <ele>268.35</ele>
        <time>2018-09-20T14:47:57Z</time>
      </trkpt>
      <trkpt lat="44.54639" lon="1.19023">
        <ele>266.9</ele>
        <time>2018-09-20T14:48:15Z</time>
      </trkpt>
      <trkpt lat="44.54657" lon="1.19009">
        <ele>263.54</ele>
        <time>2018-09-20T14:48:35Z</time>
      </trkpt>
      <trkpt lat="44.54688" lon="1.18981">
        <ele>256.81</ele>
        <time>2018-09-20T14:49:09Z</time>
      </trkpt>
      <trkpt lat="44.54756" lon="1.18971">
        <ele>246.72</ele>
        <time>2018-09-20T14:50:17Z</time>
      </trkpt>
      <trkpt lat="44.54786" lon="1.18959">
        <ele>242.39</ele>
        <time>2018-09-20T14:50:42Z</time>
      </trkpt>
      <trkpt lat="44.54799" lon="1.18952">
        <ele>241.43</ele>
        <time>2018-09-20T14:50:54Z</time>
      </trkpt>
      <trkpt lat="44.54812" lon="1.1894">
        <ele>239.99</ele>
        <time>2018-09-20T14:51:06Z</time>
      </trkpt>
      <trkpt lat="44.54831" lon="1.18929">
        <ele>238.06</ele>
        <time>2018-09-20T14:51:24Z</time>
      </trkpt>
      <trkpt lat="44.54859" lon="1.18914">
        <ele>237.1</ele>
        <time>2018-09-20T14:51:48Z</time>
      </trkpt>
      <trkpt lat="44.54881" lon="1.18899">
        <ele>236.14</ele>
        <time>2018-09-20T14:52:07Z</time>
      </trkpt>
      <trkpt lat="44.54909" lon="1.18875">
        <ele>234.7</ele>
        <time>2018-09-20T14:52:33Z</time>
      </trkpt>
      <trkpt lat="44.54937" lon="1.18851">
        <ele>234.22</ele>
        <time>2018-09-20T14:53:01Z</time>
      </trkpt>
      <trkpt lat="44.54957" lon="1.18832">
        <ele>233.26</ele>
        <time>2018-09-20T14:53:18Z</time>
      </trkpt>
      <trkpt lat="44.54976" lon="1.18817">
        <ele>233.26</ele>
        <time>2018-09-20T14:53:31Z</time>
      </trkpt>
      <trkpt lat="44.54988" lon="1.18806">
        <ele>233.26</ele>
        <time>2018-09-20T14:53:42Z</time>
      </trkpt>
      <trkpt lat="44.5499" lon="1.18799">
        <ele>233.26</ele>
        <time>2018-09-20T14:53:53Z</time>
      </trkpt>
      <trkpt lat="44.54992" lon="1.1878">
        <ele>233.26</ele>
        <time>2018-09-20T14:54:06Z</time>
      </trkpt>
      <trkpt lat="44.55004" lon="1.18757">
        <ele>236.14</ele>
        <time>2018-09-20T14:57:07Z</time>
      </trkpt>
      <trkpt lat="44.55008" lon="1.18709">
        <ele>239.51</ele>
        <time>2018-09-20T14:57:35Z</time>
      </trkpt>
      <trkpt lat="44.55013" lon="1.1869">
        <ele>239.51</ele>
        <time>2018-09-20T14:57:46Z</time>
      </trkpt>
      <trkpt lat="44.5502" lon="1.18668">
        <ele>240.47</ele>
        <time>2018-09-20T14:58:01Z</time>
      </trkpt>
      <trkpt lat="44.55028" lon="1.18638">
        <ele>240.95</ele>
        <time>2018-09-20T14:58:19Z</time>
      </trkpt>
      <trkpt lat="44.5504" lon="1.18604">
        <ele>241.43</ele>
        <time>2018-09-20T14:58:44Z</time>
      </trkpt>
      <trkpt lat="44.55052" lon="1.18584">
        <ele>242.39</ele>
        <time>2018-09-20T14:58:57Z</time>
      </trkpt>
      <trkpt lat="44.5506" lon="1.18569">
        <ele>242.39</ele>
        <time>2018-09-20T14:59:07Z</time>
      </trkpt>
      <trkpt lat="44.55065" lon="1.18554">
        <ele>242.39</ele>
        <time>2018-09-20T14:59:16Z</time>
      </trkpt>
      <trkpt lat="44.55069" lon="1.18537">
        <ele>242.39</ele>
        <time>2018-09-20T14:59:26Z</time>
      </trkpt>
      <trkpt lat="44.55073" lon="1.18521">
        <ele>242.39</ele>
        <time>2018-09-20T14:59:35Z</time>
      </trkpt>
      <trkpt lat="44.55079" lon="1.18506">
        <ele>242.39</ele>
        <time>2018-09-20T14:59:44Z</time>
      </trkpt>
      <trkpt lat="44.55083" lon="1.18493">
        <ele>242.87</ele>
        <time>2018-09-20T14:59:53Z</time>
      </trkpt>
      <trkpt lat="44.55088" lon="1.1848">
        <ele>243.83</ele>
        <time>2018-09-20T15:00:02Z</time>
      </trkpt>
      <trkpt lat="44.55093" lon="1.18466">
        <ele>244.79</ele>
        <time>2018-09-20T15:00:12Z</time>
      </trkpt>
      <trkpt lat="44.55099" lon="1.18451">
        <ele>244.79</ele>
        <time>2018-09-20T15:00:22Z</time>
      </trkpt>
      <trkpt lat="44.55105" lon="1.18433">
        <ele>242.87</ele>
        <time>2018-09-20T15:00:34Z</time>
      </trkpt>
      <trkpt lat="44.5511" lon="1.18416">
        <ele>242.87</ele>
        <time>2018-09-20T15:00:44Z</time>
      </trkpt>
      <trkpt lat="44.55116" lon="1.18402">
        <ele>242.87</ele>
        <time>2018-09-20T15:00:54Z</time>
      </trkpt>
      <trkpt lat="44.55122" lon="1.18384">
        <ele>243.83</ele>
        <time>2018-09-20T15:01:05Z</time>
      </trkpt>
      <trkpt lat="44.5513" lon="1.18369">
        <ele>243.83</ele>
        <time>2018-09-20T15:01:15Z</time>
      </trkpt>
      <trkpt lat="44.55139" lon="1.1835">
        <ele>242.39</ele>
        <time>2018-09-20T15:01:31Z</time>
      </trkpt>
      <trkpt lat="44.55148" lon="1.18337">
        <ele>241.43</ele>
        <time>2018-09-20T15:01:43Z</time>
      </trkpt>
      <trkpt lat="44.55175" lon="1.18297">
        <ele>239.51</ele>
        <time>2018-09-20T15:02:12Z</time>
      </trkpt>
      <trkpt lat="44.55196" lon="1.18253">
        <ele>239.02</ele>
        <time>2018-09-20T15:02:41Z</time>
      </trkpt>
      <trkpt lat="44.55201" lon="1.18235">
        <ele>239.51</ele>
        <time>2018-09-20T15:02:51Z</time>
      </trkpt>
      <trkpt lat="44.55207" lon="1.18219">
        <ele>239.51</ele>
        <time>2018-09-20T15:02:59Z</time>
      </trkpt>
      <trkpt lat="44.55212" lon="1.18209">
        <ele>239.51</ele>
        <time>2018-09-20T15:03:06Z</time>
      </trkpt>
      <trkpt lat="44.55218" lon="1.18196">
        <ele>238.54</ele>
        <time>2018-09-20T15:03:14Z</time>
      </trkpt>
      <trkpt lat="44.55224" lon="1.18184">
        <ele>238.54</ele>
        <time>2018-09-20T15:03:22Z</time>
      </trkpt>
      <trkpt lat="44.55229" lon="1.18171">
        <ele>238.54</ele>
        <time>2018-09-20T15:03:30Z</time>
      </trkpt>
      <trkpt lat="44.55234" lon="1.18159">
        <ele>238.54</ele>
        <time>2018-09-20T15:03:38Z</time>
      </trkpt>
      <trkpt lat="44.55238" lon="1.18147">
        <ele>238.54</ele>
        <time>2018-09-20T15:03:47Z</time>
      </trkpt>
      <trkpt lat="44.55244" lon="1.18133">
        <ele>238.54</ele>
        <time>2018-09-20T15:03:56Z</time>
      </trkpt>
      <trkpt lat="44.55249" lon="1.18119">
        <ele>238.54</ele>
        <time>2018-09-20T15:04:05Z</time>
      </trkpt>
      <trkpt lat="44.55254" lon="1.18105">
        <ele>238.54</ele>
        <time>2018-09-20T15:04:14Z</time>
      </trkpt>
      <trkpt lat="44.5526" lon="1.18091">
        <ele>238.54</ele>
        <time>2018-09-20T15:04:23Z</time>
      </trkpt>
      <trkpt lat="44.55265" lon="1.18068">
        <ele>240.47</ele>
        <time>2018-09-20T15:04:37Z</time>
      </trkpt>
      <trkpt lat="44.5527" lon="1.1805">
        <ele>241.43</ele>
        <time>2018-09-20T15:04:46Z</time>
      </trkpt>
      <trkpt lat="44.55272" lon="1.18035">
        <ele>241.91</ele>
        <time>2018-09-20T15:04:55Z</time>
      </trkpt>
      <trkpt lat="44.55276" lon="1.18019">
        <ele>242.39</ele>
        <time>2018-09-20T15:05:04Z</time>
      </trkpt>
      <trkpt lat="44.55279" lon="1.18005">
        <ele>242.39</ele>
        <time>2018-09-20T15:05:12Z</time>
      </trkpt>
      <trkpt lat="44.55283" lon="1.1799">
        <ele>242.87</ele>
        <time>2018-09-20T15:05:23Z</time>
      </trkpt>
      <trkpt lat="44.55292" lon="1.17998">
        <ele>241.43</ele>
        <time>2018-09-20T15:08:19Z</time>
      </trkpt>
      <trkpt lat="44.55299" lon="1.18012">
        <ele>241.43</ele>
        <time>2018-09-20T15:08:40Z</time>
      </trkpt>
      <trkpt lat="44.55303" lon="1.18023">
        <ele>240.95</ele>
        <time>2018-09-20T15:08:48Z</time>
      </trkpt>
      <trkpt lat="44.55304" lon="1.18013">
        <ele>240.47</ele>
        <time>2018-09-20T15:09:02Z</time>
      </trkpt>
      <trkpt lat="44.55313" lon="1.18016">
        <ele>240.47</ele>
        <time>2018-09-20T15:09:13Z</time>
      </trkpt>
      <trkpt lat="44.55325" lon="1.18019">
        <ele>239.99</ele>
        <time>2018-09-20T15:09:23Z</time>
      </trkpt>
      <trkpt lat="44.55336" lon="1.18021">
        <ele>239.51</ele>
        <time>2018-09-20T15:09:32Z</time>
      </trkpt>
      <trkpt lat="44.55347" lon="1.18026">
        <ele>238.54</ele>
        <time>2018-09-20T15:09:43Z</time>
      </trkpt>
      <trkpt lat="44.55359" lon="1.18036">
        <ele>237.1</ele>
        <time>2018-09-20T15:09:54Z</time>
      </trkpt>
      <trkpt lat="44.5537" lon="1.18043">
        <ele>236.62</ele>
        <time>2018-09-20T15:10:04Z</time>
      </trkpt>
      <trkpt lat="44.55384" lon="1.18048">
        <ele>235.66</ele>
        <time>2018-09-20T15:10:15Z</time>
      </trkpt>
      <trkpt lat="44.55396" lon="1.1805">
        <ele>234.7</ele>
        <time>2018-09-20T15:10:25Z</time>
      </trkpt>
      <trkpt lat="44.55407" lon="1.18052">
        <ele>233.74</ele>
        <time>2018-09-20T15:10:35Z</time>
      </trkpt>
      <trkpt lat="44.55422" lon="1.1805">
        <ele>232.78</ele>
        <time>2018-09-20T15:10:49Z</time>
      </trkpt>
      <trkpt lat="44.55444" lon="1.18051">
        <ele>230.85</ele>
        <time>2018-09-20T15:11:08Z</time>
      </trkpt>
      <trkpt lat="44.55456" lon="1.18058">
        <ele>229.89</ele>
        <time>2018-09-20T15:11:19Z</time>
      </trkpt>
      <trkpt lat="44.55468" lon="1.18066">
        <ele>228.45</ele>
        <time>2018-09-20T15:11:31Z</time>
      </trkpt>
      <trkpt lat="44.55477" lon="1.18076">
        <ele>227.97</ele>
        <time>2018-09-20T15:11:41Z</time>
      </trkpt>
      <trkpt lat="44.55482" lon="1.18087">
        <ele>227.49</ele>
        <time>2018-09-20T15:11:50Z</time>
      </trkpt>
      <trkpt lat="44.5549" lon="1.18096">
        <ele>227.49</ele>
        <time>2018-09-20T15:12:01Z</time>
      </trkpt>
      <trkpt lat="44.55499" lon="1.18101">
        <ele>227.01</ele>
        <time>2018-09-20T15:12:10Z</time>
      </trkpt>
      <trkpt lat="44.55508" lon="1.18095">
        <ele>227.01</ele>
        <time>2018-09-20T15:12:21Z</time>
      </trkpt>
      <trkpt lat="44.55517" lon="1.18088">
        <ele>227.01</ele>
        <time>2018-09-20T15:12:30Z</time>
      </trkpt>
      <trkpt lat="44.55526" lon="1.18079">
        <ele>227.01</ele>
        <time>2018-09-20T15:12:40Z</time>
      </trkpt>
      <trkpt lat="44.55535" lon="1.18068">
        <ele>228.45</ele>
        <time>2018-09-20T15:12:51Z</time>
      </trkpt>
      <trkpt lat="44.55546" lon="1.1806">
        <ele>228.93</ele>
        <time>2018-09-20T15:13:01Z</time>
      </trkpt>
      <trkpt lat="44.55562" lon="1.18049">
        <ele>230.85</ele>
        <time>2018-09-20T15:13:18Z</time>
      </trkpt>
      <trkpt lat="44.55578" lon="1.18037">
        <ele>230.85</ele>
        <time>2018-09-20T15:13:34Z</time>
      </trkpt>
      <trkpt lat="44.5559" lon="1.18022">
        <ele>230.85</ele>
        <time>2018-09-20T15:13:46Z</time>
      </trkpt>
      <trkpt lat="44.556" lon="1.1801">
        <ele>229.89</ele>
        <time>2018-09-20T15:13:55Z</time>
      </trkpt>
      <trkpt lat="44.55609" lon="1.18001">
        <ele>228.93</ele>
        <time>2018-09-20T15:14:04Z</time>
      </trkpt>
      <trkpt lat="44.55618" lon="1.1799">
        <ele>227.97</ele>
        <time>2018-09-20T15:14:14Z</time>
      </trkpt>
      <trkpt lat="44.5563" lon="1.17976">
        <ele>227.49</ele>
        <time>2018-09-20T15:14:26Z</time>
      </trkpt>
      <trkpt lat="44.55647" lon="1.1796">
        <ele>226.53</ele>
        <time>2018-09-20T15:14:41Z</time>
      </trkpt>
      <trkpt lat="44.55659" lon="1.17952">
        <ele>225.09</ele>
        <time>2018-09-20T15:14:52Z</time>
      </trkpt>
      <trkpt lat="44.55672" lon="1.17941">
        <ele>224.12</ele>
        <time>2018-09-20T15:15:04Z</time>
      </trkpt>
      <trkpt lat="44.55683" lon="1.17932">
        <ele>223.16</ele>
        <time>2018-09-20T15:15:15Z</time>
      </trkpt>
      <trkpt lat="44.55696" lon="1.17921">
        <ele>222.68</ele>
        <time>2018-09-20T15:15:27Z</time>
      </trkpt>
      <trkpt lat="44.55705" lon="1.17914">
        <ele>222.2</ele>
        <time>2018-09-20T15:15:36Z</time>
      </trkpt>
      <trkpt lat="44.55715" lon="1.17905">
        <ele>221.24</ele>
        <time>2018-09-20T15:15:46Z</time>
      </trkpt>
      <trkpt lat="44.55726" lon="1.17896">
        <ele>220.76</ele>
        <time>2018-09-20T15:15:56Z</time>
      </trkpt>
      <trkpt lat="44.55738" lon="1.17886">
        <ele>219.8</ele>
        <time>2018-09-20T15:16:05Z</time>
      </trkpt>
      <trkpt lat="44.55749" lon="1.17879">
        <ele>219.32</ele>
        <time>2018-09-20T15:16:14Z</time>
      </trkpt>
      <trkpt lat="44.5576" lon="1.17873">
        <ele>218.84</ele>
        <time>2018-09-20T15:16:23Z</time>
      </trkpt>
      <trkpt lat="44.5577" lon="1.17866">
        <ele>218.36</ele>
        <time>2018-09-20T15:16:31Z</time>
      </trkpt>
      <trkpt lat="44.55779" lon="1.1786">
        <ele>217.88</ele>
        <time>2018-09-20T15:16:38Z</time>
      </trkpt>
      <trkpt lat="44.55789" lon="1.17856">
        <ele>217.88</ele>
        <time>2018-09-20T15:16:46Z</time>
      </trkpt>
      <trkpt lat="44.55799" lon="1.17852">
        <ele>216.91</ele>
        <time>2018-09-20T15:16:54Z</time>
      </trkpt>
      <trkpt lat="44.55811" lon="1.17846">
        <ele>216.43</ele>
        <time>2018-09-20T15:17:05Z</time>
      </trkpt>
      <trkpt lat="44.55821" lon="1.1784">
        <ele>215.95</ele>
        <time>2018-09-20T15:17:13Z</time>
      </trkpt>
      <trkpt lat="44.55832" lon="1.17835">
        <ele>215.95</ele>
        <time>2018-09-20T15:17:21Z</time>
      </trkpt>
      <trkpt lat="44.55842" lon="1.17832">
        <ele>214.99</ele>
        <time>2018-09-20T15:17:29Z</time>
      </trkpt>
      <trkpt lat="44.55852" lon="1.1783">
        <ele>214.51</ele>
        <time>2018-09-20T15:17:37Z</time>
      </trkpt>
      <trkpt lat="44.55861" lon="1.17824">
        <ele>213.55</ele>
        <time>2018-09-20T15:17:46Z</time>
      </trkpt>
      <trkpt lat="44.55871" lon="1.17815">
        <ele>212.11</ele>
        <time>2018-09-20T15:17:57Z</time>
      </trkpt>
      <trkpt lat="44.55887" lon="1.17802">
        <ele>211.15</ele>
        <time>2018-09-20T15:18:14Z</time>
      </trkpt>
      <trkpt lat="44.55899" lon="1.17791">
        <ele>210.67</ele>
        <time>2018-09-20T15:18:24Z</time>
      </trkpt>
      <trkpt lat="44.5591" lon="1.1778">
        <ele>209.7</ele>
        <time>2018-09-20T15:18:34Z</time>
      </trkpt>
      <trkpt lat="44.55921" lon="1.17771">
        <ele>209.22</ele>
        <time>2018-09-20T15:18:44Z</time>
      </trkpt>
      <trkpt lat="44.55932" lon="1.17763">
        <ele>208.26</ele>
        <time>2018-09-20T15:18:53Z</time>
      </trkpt>
      <trkpt lat="44.55943" lon="1.17755">
        <ele>207.78</ele>
        <time>2018-09-20T15:19:01Z</time>
      </trkpt>
      <trkpt lat="44.55953" lon="1.17746">
        <ele>207.3</ele>
        <time>2018-09-20T15:19:10Z</time>
      </trkpt>
      <trkpt lat="44.55963" lon="1.17739">
        <ele>207.3</ele>
        <time>2018-09-20T15:19:18Z</time>
      </trkpt>
      <trkpt lat="44.55972" lon="1.17732">
        <ele>206.82</ele>
        <time>2018-09-20T15:19:26Z</time>
      </trkpt>
      <trkpt lat="44.55984" lon="1.17725">
        <ele>206.34</ele>
        <time>2018-09-20T15:19:42Z</time>
      </trkpt>
      <trkpt lat="44.55996" lon="1.17714">
        <ele>205.86</ele>
        <time>2018-09-20T15:19:52Z</time>
      </trkpt>
      <trkpt lat="44.56009" lon="1.17702">
        <ele>205.38</ele>
        <time>2018-09-20T15:20:04Z</time>
      </trkpt>
      <trkpt lat="44.56019" lon="1.17693">
        <ele>205.38</ele>
        <time>2018-09-20T15:20:14Z</time>
      </trkpt>
      <trkpt lat="44.56037" lon="1.17673">
        <ele>204.9</ele>
        <time>2018-09-20T15:20:30Z</time>
      </trkpt>
      <trkpt lat="44.56051" lon="1.17659">
        <ele>204.9</ele>
        <time>2018-09-20T15:20:43Z</time>
      </trkpt>
      <trkpt lat="44.5606" lon="1.17648">
        <ele>204.42</ele>
        <time>2018-09-20T15:20:52Z</time>
      </trkpt>
      <trkpt lat="44.5607" lon="1.17638">
        <ele>204.42</ele>
        <time>2018-09-20T15:21:01Z</time>
      </trkpt>
      <trkpt lat="44.56079" lon="1.17632">
        <ele>203.94</ele>
        <time>2018-09-20T15:21:09Z</time>
      </trkpt>
      <trkpt lat="44.56087" lon="1.17625">
        <ele>203.94</ele>
        <time>2018-09-20T15:21:17Z</time>
      </trkpt>
      <trkpt lat="44.56097" lon="1.17617">
        <ele>203.46</ele>
        <time>2018-09-20T15:21:26Z</time>
      </trkpt>
      <trkpt lat="44.56106" lon="1.17612">
        <ele>202.49</ele>
        <time>2018-09-20T15:21:34Z</time>
      </trkpt>
      <trkpt lat="44.56117" lon="1.1761">
        <ele>202.01</ele>
        <time>2018-09-20T15:21:42Z</time>
      </trkpt>
      <trkpt lat="44.56127" lon="1.17608">
        <ele>202.01</ele>
        <time>2018-09-20T15:21:50Z</time>
      </trkpt>
      <trkpt lat="44.56138" lon="1.17605">
        <ele>202.01</ele>
        <time>2018-09-20T15:21:58Z</time>
      </trkpt>
      <trkpt lat="44.5615" lon="1.17603">
        <ele>202.01</ele>
        <time>2018-09-20T15:22:07Z</time>
      </trkpt>
      <trkpt lat="44.56161" lon="1.176">
        <ele>201.53</ele>
        <time>2018-09-20T15:22:15Z</time>
      </trkpt>
      <trkpt lat="44.56171" lon="1.17595">
        <ele>201.53</ele>
        <time>2018-09-20T15:22:23Z</time>
      </trkpt>
      <trkpt lat="44.56179" lon="1.17585">
        <ele>201.53</ele>
        <time>2018-09-20T15:22:32Z</time>
      </trkpt>
      <trkpt lat="44.56184" lon="1.17573">
        <ele>201.53</ele>
        <time>2018-09-20T15:22:40Z</time>
      </trkpt>
      <trkpt lat="44.56188" lon="1.17561">
        <ele>201.53</ele>
        <time>2018-09-20T15:22:48Z</time>
      </trkpt>
      <trkpt lat="44.56192" lon="1.17548">
        <ele>201.05</ele>
        <time>2018-09-20T15:22:56Z</time>
      </trkpt>
      <trkpt lat="44.56197" lon="1.17536">
        <ele>201.05</ele>
        <time>2018-09-20T15:23:04Z</time>
      </trkpt>
      <trkpt lat="44.562" lon="1.17522">
        <ele>201.05</ele>
        <time>2018-09-20T15:23:12Z</time>
      </trkpt>
      <trkpt lat="44.56204" lon="1.17515">
        <ele>200.57</ele>
        <time>2018-09-20T15:24:28Z</time>
      </trkpt>
      <trkpt lat="44.56211" lon="1.17505">
        <ele>200.57</ele>
        <time>2018-09-20T15:25:56Z</time>
      </trkpt>
      <trkpt lat="44.5622" lon="1.17498">
        <ele>200.57</ele>
        <time>2018-09-20T15:26:04Z</time>
      </trkpt>
      <trkpt lat="44.56229" lon="1.1749">
        <ele>200.57</ele>
        <time>2018-09-20T15:26:12Z</time>
      </trkpt>
      <trkpt lat="44.56237" lon="1.17483">
        <ele>200.57</ele>
        <time>2018-09-20T15:26:22Z</time>
      </trkpt>
      <trkpt lat="44.56245" lon="1.17476">
        <ele>200.57</ele>
        <time>2018-09-20T15:26:29Z</time>
      </trkpt>
      <trkpt lat="44.56254" lon="1.17467">
        <ele>200.57</ele>
        <time>2018-09-20T15:26:37Z</time>
      </trkpt>
      <trkpt lat="44.56263" lon="1.17459">
        <ele>200.57</ele>
        <time>2018-09-20T15:26:45Z</time>
      </trkpt>
      <trkpt lat="44.56271" lon="1.17452">
        <ele>200.57</ele>
        <time>2018-09-20T15:26:52Z</time>
      </trkpt>
      <trkpt lat="44.56279" lon="1.17445">
        <ele>200.57</ele>
        <time>2018-09-20T15:26:59Z</time>
      </trkpt>
      <trkpt lat="44.56286" lon="1.17436">
        <ele>201.53</ele>
        <time>2018-09-20T15:27:06Z</time>
      </trkpt>
      <trkpt lat="44.56294" lon="1.17429">
        <ele>202.01</ele>
        <time>2018-09-20T15:27:13Z</time>
      </trkpt>
      <trkpt lat="44.56303" lon="1.17421">
        <ele>202.49</ele>
        <time>2018-09-20T15:27:21Z</time>
      </trkpt>
      <trkpt lat="44.56311" lon="1.17413">
        <ele>202.98</ele>
        <time>2018-09-20T15:27:29Z</time>
      </trkpt>
      <trkpt lat="44.5632" lon="1.17405">
        <ele>202.98</ele>
        <time>2018-09-20T15:27:37Z</time>
      </trkpt>
      <trkpt lat="44.56328" lon="1.17396">
        <ele>202.98</ele>
        <time>2018-09-20T15:27:45Z</time>
      </trkpt>
      <trkpt lat="44.56335" lon="1.17386">
        <ele>203.94</ele>
        <time>2018-09-20T15:27:53Z</time>
      </trkpt>
      <trkpt lat="44.56342" lon="1.17376">
        <ele>203.94</ele>
        <time>2018-09-20T15:28:01Z</time>
      </trkpt>
      <trkpt lat="44.56348" lon="1.17365">
        <ele>204.42</ele>
        <time>2018-09-20T15:28:09Z</time>
      </trkpt>
      <trkpt lat="44.56353" lon="1.17352">
        <ele>204.42</ele>
        <time>2018-09-20T15:28:17Z</time>
      </trkpt>
      <trkpt lat="44.56359" lon="1.17339">
        <ele>204.9</ele>
        <time>2018-09-20T15:28:25Z</time>
      </trkpt>
      <trkpt lat="44.56363" lon="1.17327">
        <ele>204.9</ele>
        <time>2018-09-20T15:28:32Z</time>
      </trkpt>
      <trkpt lat="44.56367" lon="1.17314">
        <ele>204.9</ele>
        <time>2018-09-20T15:28:39Z</time>
      </trkpt>
      <trkpt lat="44.56371" lon="1.17301">
        <ele>204.9</ele>
        <time>2018-09-20T15:28:46Z</time>
      </trkpt>
      <trkpt lat="44.56374" lon="1.17286">
        <ele>204.9</ele>
        <time>2018-09-20T15:28:54Z</time>
      </trkpt>
      <trkpt lat="44.56376" lon="1.17273">
        <ele>204.9</ele>
        <time>2018-09-20T15:29:01Z</time>
      </trkpt>
      <trkpt lat="44.56378" lon="1.1726">
        <ele>204.9</ele>
        <time>2018-09-20T15:29:08Z</time>
      </trkpt>
      <trkpt lat="44.56379" lon="1.17246">
        <ele>204.9</ele>
        <time>2018-09-20T15:29:15Z</time>
      </trkpt>
      <trkpt lat="44.56382" lon="1.17234">
        <ele>204.9</ele>
        <time>2018-09-20T15:29:22Z</time>
      </trkpt>
      <trkpt lat="44.56386" lon="1.17221">
        <ele>204.9</ele>
        <time>2018-09-20T15:29:30Z</time>
      </trkpt>
      <trkpt lat="44.56391" lon="1.17208">
        <ele>204.9</ele>
        <time>2018-09-20T15:29:38Z</time>
      </trkpt>
      <trkpt lat="44.56396" lon="1.17194">
        <ele>204.9</ele>
        <time>2018-09-20T15:29:46Z</time>
      </trkpt>
      <trkpt lat="44.56401" lon="1.17183">
        <ele>204.9</ele>
        <time>2018-09-20T15:29:53Z</time>
      </trkpt>
      <trkpt lat="44.56407" lon="1.1717">
        <ele>204.9</ele>
        <time>2018-09-20T15:30:01Z</time>
      </trkpt>
      <trkpt lat="44.56413" lon="1.17157">
        <ele>204.9</ele>
        <time>2018-09-20T15:30:09Z</time>
      </trkpt>
      <trkpt lat="44.5642" lon="1.17145">
        <ele>204.9</ele>
        <time>2018-09-20T15:30:17Z</time>
      </trkpt>
      <trkpt lat="44.56426" lon="1.17134">
        <ele>204.9</ele>
        <time>2018-09-20T15:30:25Z</time>
      </trkpt>
      <trkpt lat="44.56433" lon="1.17124">
        <ele>204.42</ele>
        <time>2018-09-20T15:30:33Z</time>
      </trkpt>
      <trkpt lat="44.56439" lon="1.17114">
        <ele>204.42</ele>
        <time>2018-09-20T15:30:41Z</time>
      </trkpt>
      <trkpt lat="44.56447" lon="1.17104">
        <ele>204.42</ele>
        <time>2018-09-20T15:30:52Z</time>
      </trkpt>
      <trkpt lat="44.56458" lon="1.17109">
        <ele>202.49</ele>
        <time>2018-09-20T15:31:02Z</time>
      </trkpt>
      <trkpt lat="44.56468" lon="1.17118">
        <ele>201.53</ele>
        <time>2018-09-20T15:31:12Z</time>
      </trkpt>
      <trkpt lat="44.56479" lon="1.17124">
        <ele>200.09</ele>
        <time>2018-09-20T15:31:24Z</time>
      </trkpt>
      <trkpt lat="44.56492" lon="1.1712">
        <ele>198.65</ele>
        <time>2018-09-20T15:31:34Z</time>
      </trkpt>
      <trkpt lat="44.56504" lon="1.17116">
        <ele>198.17</ele>
        <time>2018-09-20T15:31:44Z</time>
      </trkpt>
      <trkpt lat="44.56516" lon="1.17113">
        <ele>197.69</ele>
        <time>2018-09-20T15:31:54Z</time>
      </trkpt>
      <trkpt lat="44.56526" lon="1.17108">
        <ele>196.25</ele>
        <time>2018-09-20T15:32:04Z</time>
      </trkpt>
      <trkpt lat="44.56534" lon="1.17096">
        <ele>196.25</ele>
        <time>2018-09-20T15:32:13Z</time>
      </trkpt>
      <trkpt lat="44.56534" lon="1.17082">
        <ele>196.25</ele>
        <time>2018-09-20T15:32:23Z</time>
      </trkpt>
      <trkpt lat="44.56533" lon="1.17066">
        <ele>197.69</ele>
        <time>2018-09-20T15:32:34Z</time>
      </trkpt>
      <trkpt lat="44.56539" lon="1.17049">
        <ele>197.21</ele>
        <time>2018-09-20T15:32:56Z</time>
      </trkpt>
    </trkseg>
  </trk>
</gpx>